Flight Track Log - Related Links

Times and Time Zones

All times are in EST time to prevent confusion due to time zone crossing. See the AFL150 flight status page for this flight to view local times or setup timezone preferences in your user account.

Time Position Orientation Groundspeed Altitude Reporting Facility
EST Latitude Longitude Course Direction KTS MPH feet Rate Location/Type
Mon 04:22:50 AM 55.9670 37.3840 360° North 173 199 1,000  Level FlightAware ADS-B
Mon 04:23:20 AM 55.9600 37.3440 253° West 168 193 2,400 1,855 Climbing FlightAware ADS-B
Mon 04:23:45 AM 55.9550 37.3080 256° West 195 224 2,700 831 Climbing FlightAware ADS-B
Mon 04:24:25 AM 55.9450 37.2360 256° West 244 281 3,300 1,840 Climbing FlightAware ADS-B
Mon 04:25:00 AM 55.9470 37.1660 273° West 247 284 5,000 2,640 Climbing FlightAware ADS-B
Mon 04:25:40 AM 55.9680 37.0900 296° West 256 295 6,600 2,480 Climbing FlightAware ADS-B
Mon 04:26:15 AM 55.9850 37.0240 295° West 260 299 8,100 2,480 Climbing FlightAware ADS-B
Mon 04:26:55 AM 56.0060 36.9450 295° West 268 308 9,700 2,080 Climbing FlightAware ADS-B
Mon 04:27:30 AM 56.0250 36.8750 296° West 288 331 10,700 1,200 Climbing FlightAware ADS-B
Mon 04:28:25 AM 56.0590 36.7440 295° West 342 394 11,500 1,440 Climbing FlightAware ADS-B
Mon 04:29:10 AM 56.0910 36.6260 296° West 356 410 13,100 2,325 Climbing FlightAware ADS-B
Mon 04:29:45 AM 56.1140 36.5350 294° West 355 409 14,600 2,314 Climbing FlightAware ADS-B
Mon 04:30:20 AM 56.1400 36.4370 295° West 362 417 15,800 2,057 Climbing FlightAware ADS-B
Mon 04:30:55 AM 56.1650 36.3410 295° West 368 423 17,000 2,028 Climbing FlightAware ADS-B
Mon 04:31:31 AM 56.1900 36.2430 295° West 374 430 18,200 2,028 Climbing FlightAware ADS-B
Mon 04:32:06 AM 56.2160 36.1430 295° West 378 435 19,400 2,000 Climbing FlightAware ADS-B
Mon 04:32:40 AM 56.2410 36.0450 295° West 379 436 20,500 1,823 Climbing FlightAware ADS-B
Mon 04:33:25 AM 56.2750 35.9130 295° West 387 445 21,800 1,553 Climbing FlightAware ADS-B
Mon 04:34:05 AM 56.3040 35.7950 294° West 395 455 22,700 1,412 Climbing FlightAware ADS-B
Mon 04:34:50 AM 56.3380 35.6610 295° West 403 464 23,800 1,425 Climbing FlightAware ADS-B
Mon 04:35:25 AM 56.3660 35.5530 295° West 407 468 24,600 1,440 Climbing FlightAware ADS-B
Mon 04:36:05 AM 56.3980 35.4280 295° West 411 473 25,600 1,360 Climbing FlightAware ADS-B
Mon 04:36:40 AM 56.4320 35.3260 301° West 423 487 26,300 1,200 Climbing FlightAware ADS-B
Mon 04:37:40 AM 56.5080 35.1700 311° West 440 506 27,500 1,200 Climbing FlightAware ADS-B
Mon 04:38:10 AM 56.5590 35.0970 322° Northwest 452 520 28,100 1,029 Climbing FlightAware ADS-B
Mon 04:38:50 AM 56.6330 35.0200 330° Northwest 468 539 28,700 857 Climbing FlightAware ADS-B
Mon 04:39:20 AM 56.6970 34.9760 339° North 482 555 29,100 1,083 Climbing FlightAware ADS-B
Mon 04:40:02 AM 56.7840 34.9430 348° North 494 568 30,000 1,250 Climbing FlightAware ADS-B
Mon 04:40:56 AM 56.9010 34.9410 359° North 502 578 31,100 1,074 Climbing FlightAware ADS-B
Mon 04:41:37 AM 57.0080 34.9500 North 503 579 31,700 667 Climbing FlightAware ADS-B
Mon 04:42:17 AM 57.1000 34.9540 North 496 571 32,000 240 Climbing FlightAware ADS-B
Mon 04:42:52 AM 57.1790 34.9560 North 486 559 32,000  Level FlightAware ADS-B
Mon 04:43:52 AM 57.3050 34.9600 North 482 555 32,000  Level FlightAware ADS-B
Mon 04:44:27 AM 57.3880 34.9620 North 478 550 32,000  Level FlightAware ADS-B
Mon 04:44:57 AM 57.4470 34.9640 North 478 550 32,000  Level FlightAware ADS-B
Mon 04:45:45 AM 57.5460 34.9650 360° North 468 539 32,000  Level FlightAware ADS-B
Mon 04:46:25 AM 57.6470 34.9390 352° North 456 525 32,000  Level FlightAware ADS-B
Mon 04:47:02 AM 57.7190 34.9010 344° North 448 516 32,000  Level FlightAware ADS-B
Mon 04:47:32 AM 57.7750 34.8590 338° Northwest 443 510 32,000  Level FlightAware ADS-B
Mon 04:48:10 AM 57.8430 34.7900 332° Northwest 436 502 32,000  Level FlightAware ADS-B
Mon 04:49:07 AM 57.9340 34.6690 325° Northwest 431 496 32,000  Level FlightAware ADS-B
Mon 04:50:01 AM 58.0120 34.5580 323° Northwest 432 497 32,000  Level FlightAware ADS-B
Mon 04:50:17 AM 57.9750 34.6100 143° Southeast 432 497 32,000  Level FlightAware ADS-B
Mon 04:51:06 AM 58.0420 34.5160 323° Northwest 432 497 32,000  Level FlightAware ADS-B
Mon 04:51:42 AM 58.0910 34.4460 323° Northwest 432 497 32,000  Level FlightAware ADS-B
Mon 04:52:35 AM 58.2600 34.1960 322° Northwest 434 499 32,000  Level FlightAware ADS-B
Mon 04:53:10 AM 58.3210 34.1040 322° Northwest 437 503 32,000  Level FlightAware ADS-B
Mon 04:53:45 AM 58.3790 34.0150 321° Northwest 440 506 32,000  Level FlightAware ADS-B
Mon 04:54:22 AM 58.4290 33.9380 321° Northwest 442 509 32,000  Level FlightAware ADS-B
Mon 04:55:06 AM 58.5040 33.8210 321° Northwest 443 510 32,000  Level FlightAware ADS-B
Mon 04:55:52 AM 58.5760 33.7110 321° Northwest 443 510 32,000  Level FlightAware ADS-B
Mon 04:56:38 AM 58.6460 33.6010 321° Northwest 445 512 32,000  Level FlightAware ADS-B
Mon 04:57:27 AM 58.7270 33.4740 321° Northwest 444 511 32,000  Level FlightAware ADS-B
Mon 04:58:16 AM 58.7970 33.3390 315° West 438 504 32,000  Level FlightAware ADS-B
Mon 04:58:51 AM 58.8510 33.2380 316° Northwest 438 504 32,000  Level FlightAware ADS-B
Mon 04:59:26 AM 58.8970 33.1490 315° West 436 502 32,000  Level FlightAware ADS-B
Mon 05:00:06 AM 58.9550 33.0360 315° West 435 501 32,000  Level FlightAware ADS-B
Mon 05:00:37 AM 58.9960 32.9550 315° West 433 498 32,000  Level FlightAware ADS-B
Mon 05:01:27 AM 59.0640 32.8230 315° West 435 501 32,000  Level FlightAware ADS-B
Mon 05:02:31 AM 59.1600 32.6310 314° West 434 499 32,000  Level FlightAware ADS-B
Mon 05:03:11 AM 59.2150 32.5220 315° West 433 498 32,000  Level FlightAware ADS-B
Mon 05:03:46 AM 59.2640 32.4240 314° West 434 499 32,000  Level FlightAware ADS-B
Mon 05:04:26 AM 59.3180 32.3170 315° West 433 498 32,000  Level FlightAware ADS-B
Mon 05:05:01 AM 59.3660 32.2180 314° West 434 499 32,000  Level FlightAware ADS-B
Mon 05:05:36 AM 59.4140 32.1160 313° West 430 495 32,000  Level FlightAware ADS-B
Mon 05:06:16 AM 59.4570 31.9910 304° West 422 486 32,000  Level FlightAware ADS-B
Mon 05:06:51 AM 59.4890 31.8630 296° West 418 481 32,000 160 Level FlightAware ADS-B
Mon 05:07:31 AM 59.5200 31.7260 294° West 422 486 32,200 209 Climbing FlightAware ADS-B
Mon 05:08:17 AM 59.5540 31.5700 293° West 434 499 32,300 500 Climbing FlightAware ADS-B
Mon 05:09:07 AM 59.5930 31.3880 293° West 435 501 33,000 927 Climbing FlightAware ADS-B
Mon 05:10:07 AM 59.6410 31.1640 293° West 432 497 34,000 674 Climbing FlightAware ADS-B
Mon 05:10:36 AM 59.6640 31.0580 293° West 438 504 34,000  Level FlightAware ADS-B
Mon 05:11:02 AM 59.6840 30.9640 293° West 441 507 34,000  Level FlightAware ADS-B
Mon 05:11:57 AM 59.7280 30.7510 292° West 441 507 34,000  Level FlightAware ADS-B
Mon 05:12:40 AM 59.7590 30.5900 291° West 436 502 34,000  Level FlightAware ADS-B
Mon 05:13:16 AM 59.7780 30.4510 285° West 433 498 34,000  Level FlightAware ADS-B
Mon 05:13:57 AM 59.7880 30.2930 277° West 430 495 34,000  Level FlightAware ADS-B
Mon 05:14:39 AM 59.7850 30.1240 268° West 429 494 34,000  Level FlightAware ADS-B
Mon 05:15:21 AM 59.7690 29.9710 258° West 432 497 34,000  Level FlightAware ADS-B
Mon 05:15:49 AM 59.7550 29.8570 256° West 434 499 34,000  Level FlightAware ADS-B
Mon 05:16:25 AM 59.7370 29.7150 256° West 439 505 34,000  Level FlightAware ADS-B
Mon 05:17:25 AM 59.7090 29.4930 256° West 436 502 34,000  Level FlightAware ADS-B
Mon 05:18:05 AM 59.6870 29.3260 255° West 434 499 34,000  Level FlightAware ADS-B
Mon 05:18:42 AM 59.6690 29.1880 256° West 432 497 34,000  Level FlightAware ADS-B
Mon 05:19:29 AM 59.6450 29.0110 255° West 435 501 34,000  Level FlightAware ADS-B
Mon 05:20:13 AM 59.6310 28.8420 261° West 434 499 34,000  Level FlightAware ADS-B
Mon 05:20:51 AM 59.6330 28.6950 272° West 434 499 34,000  Level FlightAware ADS-B
Mon 05:21:29 AM 59.6470 28.5370 280° West 434 499 34,000  Level FlightAware ADS-B
Mon 05:22:15 AM 59.6710 28.3730 286° West 433 498 34,000  Level FlightAware ADS-B
Mon 05:22:47 AM 59.6900 28.2420 286° West 433 498 34,000  Level FlightAware ADS-B
Mon 05:23:15 AM 59.7050 28.1390 286° West 434 499 34,000  Level FlightAware ADS-B
Mon 05:23:52 AM 59.7250 27.9980 286° West 435 501 34,000  Level FlightAware ADS-B
Mon 05:25:05 AM 59.7640 27.7200 286° West 439 505 34,000  Level FlightAware ADS-B
Mon 05:25:36 AM 59.7810 27.5960 285° West 442 509 34,000  Level FlightAware ADS-B
Mon 05:26:11 AM 59.7990 27.4600 285° West 443 510 34,000  Level FlightAware ADS-B
Mon 05:26:54 AM 59.8220 27.2900 285° West 441 507 34,000  Level FlightAware ADS-B
Mon 05:27:28 AM 59.8400 27.1570 285° West 441 507 34,000  Level FlightAware ADS-B
Mon 05:28:01 AM 59.8580 27.0250 285° West 440 506 34,000  Level FlightAware ADS-B
Mon 05:28:34 AM 59.8740 26.9030 285° West 440 506 34,000  Level FlightAware ADS-B
Mon 05:29:10 AM 59.8930 26.7550 284° West 439 505 34,000  Level FlightAware ADS-B
Mon 05:29:43 AM 59.9090 26.6310 284° West 438 504 34,000  Level FlightAware ADS-B
Mon 05:30:16 AM 59.9250 26.5120 285° West 438 504 34,000  Level FlightAware ADS-B
Mon 05:30:56 AM 59.9500 26.3410 286° West 437 503 34,000  Level FlightAware ADS-B
Mon 05:31:24 AM 59.9700 26.2470 293° West 435 501 34,000  Level FlightAware ADS-B
Mon 05:32:04 AM 60.0100 26.1050 299° West 435 501 34,000  Level FlightAware ADS-B
Mon 05:32:42 AM 60.0590 25.9810 308° West 433 498 34,000  Level FlightAware ADS-B
Mon 05:33:11 AM 60.0980 25.9030 315° West 433 498 34,000  Level FlightAware ADS-B
Mon 05:33:41 AM 60.1450 25.8270 321° Northwest 433 498 34,000  Level FlightAware ADS-B
Mon 05:34:20 AM 60.2050 25.7220 319° Northwest 435 501 34,000  Level FlightAware ADS-B
Mon 05:34:55 AM 60.2490 25.6160 310° West 436 502 34,000  Level FlightAware ADS-B
Mon 05:36:04 AM 60.3170 25.3720 299° West 436 502 34,000  Level FlightAware ADS-B
Mon 05:36:35 AM 60.3370 25.2550 289° West 438 504 34,000  Level FlightAware ADS-B
Mon 05:37:13 AM 60.3560 25.1010 284° West 439 505 34,000  Level FlightAware ADS-B
Mon 05:37:54 AM 60.3760 24.9380 284° West 441 507 34,000  Level FlightAware ADS-B
Mon 05:38:43 AM 60.4010 24.7390 284° West 441 507 34,000  Level FlightAware ADS-B
Mon 05:39:29 AM 60.4220 24.5560 283° West 442 509 34,000  Level FlightAware ADS-B
Mon 05:40:00 AM 60.4370 24.4360 284° West 442 509 34,000  Level FlightAware ADS-B
Mon 05:40:32 AM 60.4530 24.3050 284° West 439 505 34,000  Level FlightAware ADS-B
Mon 05:41:04 AM 60.4760 24.1840 291° West 433 498 34,000  Level FlightAware ADS-B
Mon 05:41:32 AM 60.5010 24.0820 296° West 427 491 34,000  Level FlightAware ADS-B
Mon 05:42:15 AM 60.5410 23.9370 299° West 424 488 34,000  Level FlightAware ADS-B
Mon 05:42:55 AM 60.5780 23.7950 298° West 425 489 34,000  Level FlightAware ADS-B
Mon 05:43:36 AM 60.6170 23.6480 298° West 426 490 34,000  Level FlightAware ADS-B
Mon 05:44:12 AM 60.6500 23.5210 298° West 427 491 34,000  Level FlightAware ADS-B
Mon 05:44:43 AM 60.6780 23.4110 298° West 428 493 34,000  Level FlightAware ADS-B
Mon 05:45:16 AM 60.7080 23.2940 298° West 428 493 34,000  Level FlightAware ADS-B
Mon 05:45:57 AM 60.7450 23.1490 298° West 427 491 34,000  Level FlightAware ADS-B
Mon 05:46:29 AM 60.7750 23.0320 298° West 426 490 34,000  Level FlightAware ADS-B
Mon 05:47:15 AM 60.8160 22.8710 298° West 423 487 34,000  Level FlightAware ADS-B
Mon 05:47:58 AM 60.8550 22.7170 298° West 420 483 34,000  Level FlightAware ADS-B
Mon 05:48:30 AM 60.8830 22.6030 297° West 419 482 34,000  Level FlightAware ADS-B
Mon 05:49:10 AM 60.9170 22.4650 297° West 410 472 34,000  Level FlightAware ADS-B
Mon 05:49:42 AM 60.9440 22.3540 297° West 408 470 34,000  Level FlightAware ADS-B
Mon 05:50:15 AM 60.9750 22.2450 300° West 401 461 34,000  Level FlightAware ADS-B
Mon 05:50:54 AM 61.0140 22.1230 303° West 399 459 34,000  Level FlightAware ADS-B
Mon 05:51:31 AM 61.0510 22.0010 302° West 402 463 34,000  Level FlightAware ADS-B
Mon 05:52:03 AM 61.0830 21.8960 302° West 406 467 34,000  Level FlightAware ADS-B
Mon 05:52:40 AM 61.1190 21.7770 302° West 406 467 34,000  Level FlightAware ADS-B
Mon 05:53:40 AM 61.1790 21.5780 302° West 406 467 34,000  Level FlightAware ADS-B
Mon 05:54:08 AM 61.2060 21.4870 302° West 405 466 34,000  Level FlightAware ADS-B
Mon 05:54:37 AM 61.2350 21.3900 302° West 402 463 34,000  Level FlightAware ADS-B
Mon 05:55:12 AM 61.2680 21.2780 302° West 397 457 34,000  Level FlightAware ADS-B
Mon 05:55:48 AM 61.3030 21.1600 302° West 392 451 34,000  Level FlightAware ADS-B
Mon 05:56:21 AM 61.3330 21.0570 301° West 390 449 34,000  Level FlightAware ADS-B
Mon 05:57:00 AM 61.3710 20.9270 301° West 389 448 34,000  Level FlightAware ADS-B
Mon 05:57:37 AM 61.4050 20.8100 301° West 389 448 34,000  Level FlightAware ADS-B
Mon 05:58:18 AM 61.4420 20.6830 301° West 390 449 34,000  Level FlightAware ADS-B
Mon 05:58:50 AM 61.4720 20.5760 300° West 389 448 34,000  Level FlightAware ADS-B
Mon 05:59:40 AM 61.5180 20.4150 301° West 386 444 34,000  Level FlightAware ADS-B
Mon 06:00:13 AM 61.5480 20.3090 301° West 386 444 34,000  Level FlightAware ADS-B
Mon 06:00:54 AM 61.5860 20.1760 301° West 385 443 34,000  Level FlightAware ADS-B
Mon 06:01:22 AM 61.6150 20.0980 308° West 375 432 34,000  Level FlightAware ADS-B
Mon 06:01:44 AM 61.6410 20.0460 316° Northwest 376 433 34,000  Level FlightAware ADS-B
Mon 06:02:39 AM 61.7060 19.9110 315° West 376 433 34,000 152 Level FlightAware ADS-B
Mon 06:03:03 AM 61.7390 19.8420 315° West 377 434 34,200 609 Climbing FlightAware ADS-B
Mon 06:03:48 AM 61.7960 19.7230 315° West 381 438 34,700 615 Climbing FlightAware ADS-B
Mon 06:04:21 AM 61.8380 19.6370 316° Northwest 383 441 35,000 609 Climbing FlightAware ADS-B
Mon 06:04:57 AM 61.8830 19.5410 315° West 386 444 35,400 845 Climbing FlightAware ADS-B
Mon 06:05:32 AM 61.9270 19.4470 315° West 381 438 36,000 396 Climbing FlightAware ADS-B
Mon 06:06:28 AM 61.9970 19.2990 315° West 381 438 36,000  Level FlightAware ADS-B
Mon 06:06:57 AM 62.0330 19.2220 315° West 388 447 36,000  Level FlightAware ADS-B
Mon 06:07:46 AM 62.0950 19.0880 315° West 390 449 36,000  Level FlightAware ADS-B
Mon 06:08:43 AM 62.1660 18.9340 315° West 387 445 36,000  Level FlightAware ADS-B
Mon 06:09:23 AM 62.2160 18.8240 314° West 384 442 36,000  Level FlightAware ADS-B
Mon 06:10:00 AM 62.2620 18.7230 314° West 383 441 36,000  Level FlightAware ADS-B
Mon 06:10:40 AM 62.3120 18.6140 315° West 384 442 36,000  Level FlightAware ADS-B
Mon 06:11:08 AM 62.3460 18.5390 314° West 384 442 36,000  Level FlightAware ADS-B
Mon 06:12:01 AM 62.4090 18.3980 314° West 376 433 36,000  Level FlightAware ADS-B
Mon 06:12:36 AM 62.4510 18.3040 314° West 377 434 36,000  Level FlightAware ADS-B
Mon 06:13:01 AM 62.4830 18.2320 314° West 377 434 36,000  Level FlightAware ADS-B
Mon 06:13:41 AM 62.5320 18.1220 314° West 379 436 36,000  Level FlightAware ADS-B
Mon 06:14:12 AM 62.5690 18.0390 314° West 380 437 36,000  Level FlightAware ADS-B
Mon 06:15:21 AM 62.6550 17.8420 314° West 382 440 36,000  Level FlightAware ADS-B
Mon 06:16:01 AM 62.7040 17.7290 313° West 382 440 36,000  Level FlightAware ADS-B
Mon 06:16:36 AM 62.7480 17.6290 314° West 380 437 36,000  Level FlightAware ADS-B
Mon 06:17:16 AM 62.7960 17.5170 313° West 379 436 36,000  Level FlightAware ADS-B
Mon 06:18:21 AM 62.8750 17.3340 313° West 382 440 36,000  Level FlightAware ADS-B
Mon 06:19:02 AM 62.9230 17.2210 313° West 381 438 36,000  Level FlightAware ADS-B
Mon 06:19:46 AM 62.9770 17.0940 313° West 382 440 36,000  Level FlightAware ADS-B
Mon 06:20:16 AM 63.0130 17.0080 313° West 380 437 36,000  Level FlightAware ADS-B
Mon 06:21:01 AM 63.0660 16.8810 313° West 380 437 36,000  Level FlightAware ADS-B
Mon 06:21:42 AM 63.1140 16.7660 313° West 380 437 36,000  Level FlightAware ADS-B
Mon 06:22:22 AM 63.1610 16.6520 312° West 380 437 36,000  Level FlightAware ADS-B
Mon 06:22:57 AM 63.2030 16.5520 313° West 381 438 36,000  Level FlightAware ADS-B
Mon 06:23:37 AM 63.2500 16.4360 312° West 385 443 36,000  Level FlightAware ADS-B
Mon 06:24:22 AM 63.3040 16.3040 312° West 385 443 36,000  Level FlightAware ADS-B
Mon 06:24:56 AM 63.3450 16.2040 312° West 388 447 36,000  Level FlightAware ADS-B
Mon 06:25:36 AM 63.3940 16.0840 312° West 389 448 36,000  Level FlightAware ADS-B
Mon 06:26:21 AM 63.4470 15.9500 312° West 388 447 36,000  Level FlightAware ADS-B
Mon 06:26:56 AM 63.4890 15.8460 312° West 386 444 36,000  Level FlightAware ADS-B
Mon 06:27:36 AM 63.5360 15.7270 312° West 388 447 36,000  Level FlightAware ADS-B
Mon 06:28:16 AM 63.5840 15.6060 312° West 388 447 36,000  Level FlightAware ADS-B
Mon 06:28:51 AM 63.6250 15.5010 311° West 388 447 36,000  Level FlightAware ADS-B
Mon 06:29:31 AM 63.6730 15.3790 312° West 387 445 36,000  Level FlightAware ADS-B
Mon 06:30:31 AM 63.7430 15.2000 312° West 381 438 36,000  Level FlightAware ADS-B
Mon 06:31:12 AM 63.7920 15.0740 311° West 388 447 36,000  Level FlightAware ADS-B
Mon 06:31:51 AM 63.8380 14.9530 311° West 382 440 36,000  Level FlightAware ADS-B
Mon 06:32:31 AM 63.8840 14.8330 311° West 381 438 36,000  Level FlightAware ADS-B
Mon 06:33:12 AM 63.9320 14.7080 311° West 380 437 36,000  Level FlightAware ADS-B
Mon 06:33:41 AM 63.9650 14.6190 310° West 379 436 36,000  Level FlightAware ADS-B
Mon 06:34:18 AM 64.0070 14.5070 311° West 381 438 36,000  Level FlightAware ADS-B
Mon 06:34:57 AM 64.0530 14.3840 311° West 383 441 36,000  Level FlightAware ADS-B
Mon 06:35:27 AM 64.0870 14.2930 311° West 383 441 36,000  Level FlightAware ADS-B
Mon 06:36:08 AM 64.1360 14.1610 310° West 385 443 36,000  Level FlightAware ADS-B
Mon 06:36:42 AM 64.1750 14.0560 310° West 384 442 36,000  Level FlightAware ADS-B
Mon 06:37:32 AM 64.2340 13.8950 310° West 384 442 36,000  Level FlightAware ADS-B
Mon 06:38:37 AM 64.3070 13.6950 310° West 381 438 36,000  Level FlightAware ADS-B
Mon 06:39:12 AM 64.3470 13.5830 310° West 384 442 36,000  Level FlightAware ADS-B
Mon 06:39:48 AM 64.3870 13.4720 310° West 383 441 36,000  Level FlightAware ADS-B
Mon 06:40:27 AM 64.4330 13.3430 310° West 382 440 36,000  Level FlightAware ADS-B
Mon 06:41:11 AM 64.4800 13.2100 309° West 382 440 36,000  Level FlightAware ADS-B
Mon 06:42:08 AM 64.5440 13.0280 309° West 381 438 36,000  Level FlightAware ADS-B
Mon 06:42:39 AM 64.5790 12.9280 309° West 381 438 36,000  Level FlightAware ADS-B
Mon 06:43:15 AM 64.6190 12.8130 309° West 383 441 36,000  Level FlightAware ADS-B
Mon 06:44:17 AM 64.6870 12.6170 309° West 386 444 36,000  Level FlightAware ADS-B
Mon 06:44:56 AM 64.7310 12.4890 309° West 386 444 36,000  Level FlightAware ADS-B
Mon 06:45:37 AM 64.7780 12.3530 309° West 387 445 36,000  Level FlightAware ADS-B
Mon 06:46:25 AM 64.8290 12.2010 308° West 388 447 36,000  Level FlightAware ADS-B
Mon 06:47:02 AM 64.8700 12.0810 309° West 388 447 36,000  Level FlightAware ADS-B
Mon 06:48:01 AM 64.9360 11.8830 308° West 388 447 36,000  Level FlightAware ADS-B
Mon 06:48:35 AM 64.9760 11.7650 309° West 388 447 36,000  Level FlightAware ADS-B
Mon 06:49:12 AM 65.0160 11.6440 308° West 388 447 36,000  Level FlightAware ADS-B
Mon 06:50:02 AM 65.0700 11.4770 308° West 387 445 36,000  Level FlightAware ADS-B
Mon 06:50:41 AM 65.1130 11.3450 308° West 389 448 36,000  Level FlightAware ADS-B
Mon 06:51:13 AM 65.1490 11.2360 308° West 390 449 36,000  Level FlightAware ADS-B
Mon 06:52:03 AM 65.2030 11.0670 307° West 391 450 36,000  Level FlightAware ADS-B
Mon 06:52:44 AM 65.2490 10.9260 308° West 393 452 36,000  Level FlightAware ADS-B
Mon 06:53:19 AM 65.2870 10.8060 307° West 395 455 36,000  Level FlightAware ADS-B
Mon 06:54:04 AM 65.3370 10.6480 307° West 396 456 36,000  Level FlightAware ADS-B
Mon 06:54:43 AM 65.3800 10.5130 307° West 396 456 36,000  Level FlightAware ADS-B
Mon 06:55:21 AM 65.4210 10.3790 306° West 396 456 36,000  Level FlightAware ADS-B
Mon 06:56:04 AM 65.4680 10.2280 307° West 398 458 36,000  Level FlightAware ADS-B
Mon 06:56:36 AM 65.5040 10.1120 307° West 398 458 36,000  Level FlightAware ADS-B
Mon 06:57:41 AM 65.5750 9.8800 307° West 401 461 36,000  Level FlightAware ADS-B
Mon 06:58:26 AM 65.6220 9.7250 306° West 402 463 36,000  Level FlightAware ADS-B
Mon 06:59:09 AM 65.6700 9.5670 306° West 404 465 36,000  Level FlightAware ADS-B
Mon 07:00:12 AM 65.7390 9.3350 306° West 409 471 36,000  Level FlightAware ADS-B
Mon 07:01:02 AM 65.7930 9.1530 306° West 409 471 36,000  Level FlightAware ADS-B
Mon 07:01:47 AM 65.8440 8.9820 306° West 409 471 36,000  Level FlightAware ADS-B
Mon 07:02:15 AM 65.8760 8.8700 305° West 408 470 36,000  Level FlightAware ADS-B
Mon 07:02:46 AM 65.9090 8.7570 306° West 406 467 36,000  Level FlightAware ADS-B
Mon 07:03:46 AM 65.9750 8.5290 305° West 408 470 36,000  Level FlightAware ADS-B
Mon 07:04:20 AM 66.0060 8.4180 305° West 408 470 36,000  Level FlightAware ADS-B
Mon 07:04:58 AM 66.0520 8.2560 305° West 410 472 36,000  Level FlightAware ADS-B
Mon 07:05:35 AM 66.0930 8.1140 306° West 410 472 36,000  Level FlightAware ADS-B
Mon 07:06:10 AM 66.1300 7.9820 305° West 411 473 36,000  Level FlightAware ADS-B
Mon 07:07:14 AM 66.1990 7.7330 305° West 413 475 36,000  Level FlightAware ADS-B
Mon 07:07:51 AM 66.2390 7.5870 304° West 412 474 36,000  Level FlightAware ADS-B
Mon 07:08:22 AM 66.2710 7.4700 304° West 412 474 36,000  Level FlightAware ADS-B
Mon 07:09:01 AM 66.3060 7.3400 304° West 412 474 36,000  Level FlightAware ADS-B
Mon 07:09:44 AM 66.3590 7.1460 304° West 415 478 36,000  Level FlightAware ADS-B
Mon 07:10:20 AM 66.3980 7.0030 304° West 416 479 36,000  Level FlightAware ADS-B
Mon 07:11:02 AM 66.4420 6.8370 304° West 414 476 36,000  Level FlightAware ADS-B
Mon 07:12:16 AM 66.5070 6.5840 303° West 414 476 36,000  Level FlightAware ADS-B
Mon 07:12:56 AM 66.5610 6.3830 304° West 414 476 36,000  Level FlightAware ADS-B
Mon 07:13:33 AM 66.6010 6.2300 303° West 415 478 36,000  Level FlightAware ADS-B
Mon 07:13:58 AM 66.6260 6.1340 303° West 416 479 36,000  Level FlightAware ADS-B
Mon 07:15:00 AM 66.6790 5.9170 302° West 416 479 36,000  Level FlightAware ADS-B
Mon 07:15:36 AM 66.7110 5.7900 303° West 416 479 36,000  Level FlightAware ADS-B
Mon 07:16:00 AM 66.7310 5.7060 301° West 416 479 36,000  Level FlightAware ADS-B
Mon 07:16:48 AM 66.7730 5.5370 302° West 416 479 36,000  Level FlightAware ADS-B
Mon 07:17:24 AM 66.8040 5.4110 302° West 416 479 36,000  Level FlightAware ADS-B
Mon 07:18:00 AM 66.8350 5.2840 302° West 416 479 36,000  Level FlightAware ADS-B
Mon 07:18:36 AM 66.8670 5.1570 303° West 416 479 36,000  Level FlightAware ADS-B
Mon 07:19:12 AM 66.8980 5.0290 302° West 416 479 36,000  Level FlightAware ADS-B
Mon 07:19:48 AM 66.9290 4.9020 302° West 416 479 36,000  Level FlightAware ADS-B
Mon 07:20:25 AM 66.9610 4.7710 302° West 416 479 36,000  Level FlightAware ADS-B
Mon 07:21:01 AM 66.9920 4.6430 302° West 416 479 36,000  Level FlightAware ADS-B
Mon 07:21:37 AM 67.0230 4.5150 302° West 416 479 36,000  Level FlightAware ADS-B
Mon 07:22:25 AM 67.0650 4.3450 302° West 416 479 36,000  Level FlightAware ADS-B
Mon 07:23:01 AM 67.0960 4.2160 302° West 416 479 36,000  Level FlightAware ADS-B
Mon 07:23:25 AM 67.1170 4.1310 302° West 416 479 36,000  Level FlightAware ADS-B
Mon 07:23:49 AM 67.1380 4.0450 302° West 416 479 36,000 Level FlightAware ADS-B
Mon 07:26:00 AM 67.1642 3.3891 276° West  Level Estimated
Mon 07:27:00 AM 67.1752 3.0883 276° West  Level Estimated
Mon 07:28:00 AM 67.1858 2.7871 275° West  Level Estimated
Mon 07:29:00 AM 67.1957 2.4857 275° West  Level Estimated
Mon 07:30:00 AM 67.2051 2.1841 275° West  Level Estimated
Mon 07:31:00 AM 67.2139 1.8823 274° West  Level Estimated
Mon 07:32:00 AM 67.2222 1.5802 274° West  Level Estimated
Mon 07:33:00 AM 67.2298 1.2779 274° West  Level Estimated
Mon 07:34:00 AM 67.2370 0.9755 274° West  Level Estimated
Mon 07:35:00 AM 67.2435 0.6728 273° West  Level Estimated
Mon 07:36:00 AM 67.2495 0.3701 273° West  Level Estimated
Mon 07:37:00 AM 67.2549 0.0671 273° West  Level Estimated
Mon 07:38:00 AM 67.2597 -0.2359 272° West  Level Estimated
Mon 07:39:00 AM 67.2639 -0.5391 272° West  Level Estimated
Mon 07:40:00 AM 67.2676 -0.8424 272° West  Level Estimated
Mon 07:41:00 AM 67.2707 -1.1457 272° West  Level Estimated
Mon 07:42:00 AM 67.2733 -1.4492 271° West  Level Estimated
Mon 07:43:00 AM 67.2753 -1.7527 271° West  Level Estimated
Mon 07:44:00 AM 67.2766 -2.0562 271° West  Level Estimated
Mon 07:45:00 AM 67.2775 -2.3598 271° West  Level Estimated
Mon 07:46:00 AM 67.2777 -2.6633 270° West  Level Estimated
Mon 07:47:00 AM 67.2774 -2.9669 270° West  Level Estimated
Mon 07:48:00 AM 67.2765 -3.2704 270° West  Level Estimated
Mon 07:49:00 AM 67.2750 -3.5740 269° West  Level Estimated
Mon 07:50:00 AM 67.2730 -3.8774 269° West  Level Estimated
Mon 07:51:00 AM 67.2703 -4.1809 269° West  Level Estimated
Mon 07:52:00 AM 67.2672 -4.4842 269° West  Level Estimated
Mon 07:53:00 AM 67.2634 -4.7875 268° West  Level Estimated
Mon 07:54:00 AM 67.2591 -5.0906 268° West  Level Estimated
Mon 07:55:00 AM 67.2542 -5.3937 268° West  Level Estimated
Mon 07:56:00 AM 67.2487 -5.6966 267° West  Level Estimated
Mon 07:57:00 AM 67.2426 -5.9993 267° West  Level Estimated
Mon 07:58:00 AM 67.2360 -6.3019 267° West  Level Estimated
Mon 07:59:00 AM 67.2288 -6.6044 267° West  Level Estimated
Mon 08:00:00 AM 67.2211 -6.9066 266° West  Level Estimated
Mon 08:01:00 AM 67.2127 -7.2087 266° West  Level Estimated
Mon 08:02:00 AM 67.2038 -7.5105 266° West  Level Estimated
Mon 08:03:00 AM 67.1944 -7.8121 266° West  Level Estimated
Mon 08:04:00 AM 67.1843 -8.1134 265° West  Level Estimated
Mon 08:05:00 AM 67.1738 -8.4145 265° West  Level Estimated
Mon 08:06:00 AM 67.1626 -8.7153 265° West  Level Estimated
Mon 08:07:00 AM 67.1509 -9.0159 264° West  Level Estimated
Mon 08:08:00 AM 67.1386 -9.3161 264° West  Level Estimated
Mon 08:09:00 AM 67.1257 -9.6160 264° West  Level Estimated
Mon 08:10:00 AM 67.1123 -9.9156 264° West  Level Estimated
Mon 08:11:00 AM 67.0984 -10.2149 263° West  Level Estimated
Mon 08:12:00 AM 67.0838 -10.5138 263° West  Level Estimated
Mon 08:13:00 AM 67.0687 -10.8123 263° West  Level Estimated
Mon 08:14:00 AM 67.0531 -11.1105 262° West  Level Estimated
Mon 08:15:00 AM 67.0369 -11.4083 262° West  Level Estimated
Mon 08:16:00 AM 67.0201 -11.7057 262° West  Level Estimated
Mon 08:17:00 AM 67.0028 -12.0026 262° West  Level Estimated
Mon 08:18:00 AM 66.9849 -12.2991 261° West  Level Estimated
Mon 08:19:00 AM 66.9665 -12.5952 261° West  Level Estimated
Mon 08:20:00 AM 66.9476 -12.8908 261° West  Level Estimated
Mon 08:21:00 AM 66.9280 -13.1860 261° West  Level Estimated
Mon 08:22:00 AM 66.9080 -13.4807 260° West  Level Estimated
Mon 08:23:00 AM 66.8874 -13.7749 260° West  Level Estimated
Mon 08:24:00 AM 66.8662 -14.0686 260° West  Level Estimated
Mon 08:25:00 AM 66.8445 -14.3617 259° West  Level Estimated
Mon 08:26:00 AM 66.8223 -14.6544 259° West  Level Estimated
Mon 08:27:00 AM 66.7995 -14.9465 259° West  Level Estimated
Mon 08:28:00 AM 66.7762 -15.2381 259° West  Level Estimated
Mon 08:29:00 AM 66.7523 -15.5291 258° West  Level Estimated
Mon 08:30:00 AM 66.7279 -15.8195 258° West  Level Estimated
Mon 08:31:00 AM 66.7030 -16.1094 258° West  Level Estimated
Mon 08:32:00 AM 66.6776 -16.3986 258° West  Level Estimated
Mon 08:33:00 AM 66.6516 -16.6873 257° West  Level Estimated
Mon 08:34:00 AM 66.6251 -16.9754 257° West  Level Estimated
Mon 08:35:00 AM 66.5980 -17.2628 257° West  Level Estimated
Mon 08:36:00 AM 66.5705 -17.5496 257° West  Level Estimated
Mon 08:37:00 AM 66.5424 -17.8358 256° West  Level Estimated
Mon 08:38:00 AM 66.5138 -18.1213 256° West  Level Estimated
Mon 08:39:00 AM 66.4847 -18.4061 256° West  Level Estimated
Mon 08:40:00 AM 66.4550 -18.6903 255° West  Level Estimated
Mon 08:41:00 AM 66.4249 -18.9738 255° West  Level Estimated
Mon 08:42:00 AM 66.3942 -19.2566 255° West  Level Estimated
Mon 08:43:00 AM 66.3630 -19.5387 255° West  Level Estimated
Mon 08:44:00 AM 66.3313 -19.8201 254° West  Level Estimated
Mon 08:45:00 AM 66.2991 -20.1008 254° West  Level Estimated
Mon 08:46:00 AM 66.2664 -20.3807 254° West  Level Estimated
Mon 08:47:00 AM 66.2332 -20.6600 254° West  Level Estimated
Mon 08:48:00 AM 66.1995 -20.9385 253° West  Level Estimated
Mon 08:49:00 AM 66.1653 -21.2162 253° West  Level Estimated
Mon 08:50:00 AM 66.1306 -21.4932 253° West  Level Estimated
Mon 08:51:00 AM 66.0954 -21.7694 253° West  Level Estimated
Mon 08:52:00 AM 66.0598 -22.0449 252° West  Level Estimated
Mon 08:53:00 AM 66.0236 -22.3196 252° West  Level Estimated
Mon 08:54:00 AM 65.9869 -22.5935 252° West  Level Estimated
Mon 08:55:00 AM 65.9498 -22.8666 252° West  Level Estimated
Mon 08:56:00 AM 65.9121 -23.1389 251° West  Level Estimated
Mon 08:57:00 AM 65.8740 -23.4104 251° West  Level Estimated
Mon 08:58:00 AM 65.8354 -23.6811 251° West  Level Estimated
Mon 08:59:00 AM 65.7964 -23.9510 251° West  Level Estimated
Mon 09:00:00 AM 65.7568 -24.2200 250° West  Level Estimated
Mon 09:01:00 AM 65.7168 -24.4882 250° West  Level Estimated
Mon 09:02:00 AM 65.6764 -24.7556 250° West  Level Estimated
Mon 09:03:00 AM 65.6354 -25.0222 250° West  Level Estimated
Mon 09:04:00 AM 65.5940 -25.2879 249° West  Level Estimated
Mon 09:05:00 AM 65.5521 -25.5527 249° West  Level Estimated
Mon 09:06:00 AM 65.5098 -25.8167 249° West  Level Estimated
Mon 09:07:00 AM 65.4670 -26.0799 249° West  Level Estimated
Mon 09:08:00 AM 65.4238 -26.3422 248° West  Level Estimated
Mon 09:09:00 AM 65.3801 -26.6036 248° West  Level Estimated
Mon 09:10:00 AM 65.3359 -26.8641 248° West  Level Estimated
Mon 09:11:00 AM 65.2913 -27.1238 248° West  Level Estimated
Mon 09:12:00 AM 65.2463 -27.3825 248° West  Level Estimated
Mon 09:13:00 AM 65.2008 -27.6404 247° West  Level Estimated
Mon 09:14:00 AM 65.1548 -27.8974 247° West  Level Estimated
Mon 09:15:00 AM 65.1085 -28.1535 247° West  Level Estimated
Mon 09:16:00 AM 65.0617 -28.4088 247° West  Level Estimated
Mon 09:17:00 AM 65.0145 -28.6631 246° West  Level Estimated
Mon 09:18:00 AM 64.9668 -28.9165 246° West  Level Estimated
Mon 09:19:00 AM 64.9187 -29.1690 246° West  Level Estimated
Mon 09:20:00 AM 64.8702 -29.4206 246° West  Level Estimated
Mon 09:21:00 AM 64.8212 -29.6713 245° Southwest  Level Estimated
Mon 09:22:00 AM 64.7719 -29.9211 245° Southwest  Level Estimated
Mon 09:23:00 AM 64.7221 -30.1699 245° Southwest  Level Estimated
Mon 09:24:00 AM 64.6719 -30.4179 245° Southwest  Level Estimated
Mon 09:25:00 AM 64.6213 -30.6649 245° Southwest  Level Estimated
Mon 09:26:00 AM 64.5703 -30.9110 244° Southwest  Level Estimated
Mon 09:27:00 AM 64.5188 -31.1562 244° Southwest  Level Estimated
Mon 09:28:00 AM 64.4670 -31.4004 244° Southwest  Level Estimated
Mon 09:29:00 AM 64.4148 -31.6438 244° Southwest  Level Estimated
Mon 09:30:00 AM 64.3621 -31.8862 243° Southwest  Level Estimated
Mon 09:31:00 AM 64.3091 -32.1276 243° Southwest  Level Estimated
Mon 09:32:00 AM 64.2557 -32.3682 243° Southwest  Level Estimated
Mon 09:33:00 AM 64.2018 -32.6078 243° Southwest  Level Estimated
Mon 09:34:00 AM 64.1476 -32.8465 243° Southwest  Level Estimated
Mon 09:35:00 AM 64.0930 -33.0842 242° Southwest  Level Estimated
Mon 09:36:00 AM 64.0380 -33.3210 242° Southwest  Level Estimated
Mon 09:37:00 AM 63.9826 -33.5569 242° Southwest  Level Estimated
Mon 09:38:00 AM 63.9269 -33.7918 242° Southwest  Level Estimated
Mon 09:39:00 AM 63.8707 -34.0258 242° Southwest  Level Estimated
Mon 09:40:00 AM 63.8142 -34.2589 241° Southwest  Level Estimated
Mon 09:41:00 AM 63.7573 -34.4910 241° Southwest  Level Estimated
Mon 09:42:00 AM 63.7001 -34.7222 241° Southwest  Level Estimated
Mon 09:43:00 AM 63.6424 -34.9524 241° Southwest  Level Estimated
Mon 09:44:00 AM 63.5844 -35.1817 240° Southwest  Level Estimated
Mon 09:45:00 AM 63.5261 -35.4101 240° Southwest  Level Estimated
Mon 09:46:00 AM 63.4674 -35.6376 240° Southwest  Level Estimated
Mon 09:47:00 AM 63.4083 -35.8641 240° Southwest  Level Estimated
Mon 09:48:00 AM 63.3489 -36.0897 240° Southwest  Level Estimated
Mon 09:49:00 AM 63.2891 -36.3143 239° Southwest  Level Estimated
Mon 09:50:00 AM 63.2289 -36.5380 239° Southwest  Level Estimated
Mon 09:51:00 AM 63.1684 -36.7608 239° Southwest  Level Estimated
Mon 09:52:00 AM 63.1076 -36.9826 239° Southwest  Level Estimated
Mon 09:53:00 AM 63.0464 -37.2036 239° Southwest  Level Estimated
Mon 09:54:00 AM 62.9849 -37.4235 238° Southwest  Level Estimated
Mon 09:55:00 AM 62.9230 -37.6426 238° Southwest  Level Estimated
Mon 09:56:00 AM 62.8608 -37.8607 238° Southwest  Level Estimated
Mon 09:57:00 AM 62.7983 -38.0780 238° Southwest  Level Estimated
Mon 09:58:00 AM 62.7354 -38.2943 238° Southwest  Level Estimated
Mon 09:59:00 AM 62.6722 -38.5096 237° Southwest  Level Estimated
Mon 10:00:00 AM 62.6087 -38.7241 237° Southwest  Level Estimated
Mon 10:01:00 AM 62.5448 -38.9376 237° Southwest  Level Estimated
Mon 10:02:00 AM 62.4806 -39.1502 237° Southwest  Level Estimated
Mon 10:03:00 AM 62.4161 -39.3619 237° Southwest  Level Estimated
Mon 10:04:00 AM 62.3513 -39.5727 237° Southwest  Level Estimated
Mon 10:05:00 AM 62.2861 -39.7826 236° Southwest  Level Estimated
Mon 10:06:00 AM 62.2207 -39.9916 236° Southwest  Level Estimated
Mon 10:07:00 AM 62.1549 -40.1996 236° Southwest  Level Estimated
Mon 10:08:00 AM 62.0888 -40.4068 236° Southwest  Level Estimated
Mon 10:09:00 AM 62.0224 -40.6130 236° Southwest  Level Estimated
Mon 10:10:00 AM 61.9557 -40.8184 235° Southwest  Level Estimated
Mon 10:11:00 AM 61.8887 -41.0228 235° Southwest  Level Estimated
Mon 10:12:00 AM 61.8214 -41.2264 235° Southwest  Level Estimated
Mon 10:13:00 AM 61.7538 -41.4291 235° Southwest  Level Estimated
Mon 10:14:00 AM 61.6859 -41.6308 235° Southwest  Level Estimated
Mon 10:15:00 AM 61.6177 -41.8317 235° Southwest  Level Estimated
Mon 10:16:00 AM 61.5492 -42.0317 234° Southwest  Level Estimated
Mon 10:17:00 AM 61.4804 -42.2309 234° Southwest  Level Estimated
Mon 10:18:00 AM 61.4114 -42.4291 234° Southwest  Level Estimated
Mon 10:19:00 AM 61.3420 -42.6265 234° Southwest  Level Estimated
Mon 10:20:00 AM 61.2724 -42.8230 234° Southwest  Level Estimated
Mon 10:21:00 AM 61.2025 -43.0186 233° Southwest  Level Estimated
Mon 10:22:00 AM 61.1323 -43.2133 233° Southwest  Level Estimated
Mon 10:23:00 AM 61.0618 -43.4072 233° Southwest  Level Estimated
Mon 10:24:00 AM 60.9910 -43.6003 233° Southwest  Level Estimated
Mon 10:25:00 AM 60.9200 -43.7924 233° Southwest  Level Estimated
Mon 10:25:07 AM 62.3570 -49.0190 233° Southwest 424 488 37,000  Level FlightAware ADS-B
Mon 10:25:37 AM 62.3220 -49.1150 232° Southwest 423 487 37,000  Level FlightAware ADS-B
Mon 10:26:00 AM 60.8487 -43.9837 233° Southwest  Level Estimated
Mon 10:26:16 AM 62.2820 -49.2250 232° Southwest 423 487 37,000  Level FlightAware ADS-B
Mon 10:26:52 AM 62.2450 -49.3270 232° Southwest 423 487 37,000  Level FlightAware ADS-B
Mon 10:27:55 AM 62.1570 -49.5730 233° Southwest 421 484 37,000  Level FlightAware ADS-B
Mon 10:28:33 AM 62.1180 -49.6810 232° Southwest 422 486 37,000  Level FlightAware ADS-B
Mon 10:29:09 AM 62.0810 -49.7820 232° Southwest 422 486 37,000  Level FlightAware ADS-B
Mon 10:29:44 AM 62.0450 -49.8790 232° Southwest 422 486 37,000  Level FlightAware ADS-B
Mon 10:30:20 AM 61.9870 -50.0400 233° Southwest 422 486 37,000  Level FlightAware ADS-B
Mon 10:30:37 AM 61.9650 -50.1060 235° Southwest 422 486 37,000  Level FlightAware ADS-B
Mon 10:31:29 AM 61.9160 -50.2560 235° Southwest 422 486 37,000  Level FlightAware ADS-B
Mon 10:32:17 AM 61.8700 -50.3940 235° Southwest 422 486 37,000  Level FlightAware ADS-B
Mon 10:32:38 AM 61.8320 -50.5180 237° Southwest 421 484 37,000  Level FlightAware ADS-B
Mon 10:33:38 AM 61.7720 -50.7010 235° Southwest 421 484 37,000  Level FlightAware ADS-B
Mon 10:34:14 AM 61.7260 -50.8410 235° Southwest 417 480 37,000  Level FlightAware ADS-B
Mon 10:35:15 AM 61.6640 -51.0250 235° Southwest 419 482 37,000  Level FlightAware ADS-B
Mon 10:35:51 AM 61.6290 -51.1260 234° Southwest 419 482 37,000  Level FlightAware ADS-B
Mon 10:36:37 AM 61.5840 -51.2550 234° Southwest 419 482 37,000  Level FlightAware ADS-B
Mon 10:37:13 AM 61.5490 -51.3550 234° Southwest 419 482 37,000  Level FlightAware ADS-B
Mon 10:37:49 AM 61.5150 -51.4560 235° Southwest 419 482 37,000  Level FlightAware ADS-B
Mon 10:38:49 AM 61.4560 -51.6230 234° Southwest 419 482 37,000  Level FlightAware ADS-B
Mon 10:39:26 AM 61.4210 -51.7270 235° Southwest 419 482 37,000  Level FlightAware ADS-B
Mon 10:40:14 AM 61.3740 -51.8600 234° Southwest 419 482 37,000  Level FlightAware ADS-B
Mon 10:40:51 AM 61.3380 -51.9630 234° Southwest 419 482 37,000  Level FlightAware ADS-B
Mon 10:41:27 AM 61.3030 -52.0630 234° Southwest 419 482 37,000  Level FlightAware ADS-B
Mon 10:42:03 AM 61.2690 -52.1630 235° Southwest 419 482 37,000  Level FlightAware ADS-B
Mon 10:42:39 AM 61.2340 -52.2630 234° Southwest 419 482 37,000  Level FlightAware ADS-B
Mon 10:43:16 AM 61.1980 -52.3650 234° Southwest 419 482 37,000  Level FlightAware ADS-B
Mon 10:43:38 AM 61.1760 -52.4260 233° Southwest 419 482 37,000  Level FlightAware ADS-B
Mon 10:44:15 AM 61.1410 -52.5280 235° Southwest 419 482 37,000  Level FlightAware ADS-B
Mon 10:44:39 AM 61.1170 -52.5940 233° Southwest 419 482 37,000 11 Level FlightAware ADS-B
Mon 10:47:00 AM 60.9113 -52.9723 222° Southwest  Level Estimated
Mon 10:48:00 AM 60.8234 -53.1318 222° Southwest  Level Estimated
Mon 10:49:00 AM 60.7353 -53.2904 221° Southwest  Level Estimated
Mon 10:50:00 AM 60.6471 -53.4482 221° Southwest  Level Estimated
Mon 10:51:00 AM 60.5587 -53.6050 221° Southwest  Level Estimated
Mon 10:52:00 AM 60.4701 -53.7611 221° Southwest  Level Estimated
Mon 10:53:00 AM 60.3813 -53.9162 221° Southwest  Level Estimated
Mon 10:54:00 AM 60.2923 -54.0706 221° Southwest  Level Estimated
Mon 10:55:00 AM 60.2031 -54.2241 221° Southwest  Level Estimated
Mon 10:56:00 AM 60.1138 -54.3768 220° Southwest  Level Estimated
Mon 10:57:00 AM 60.0243 -54.5286 220° Southwest  Level Estimated
Mon 10:58:00 AM 59.9347 -54.6796 220° Southwest  Level Estimated
Mon 10:59:00 AM 59.8448 -54.8298 220° Southwest  Level Estimated
Mon 11:00:00 AM 59.7550 -54.9789 220° Southwest  Level Estimated
Mon 11:01:00 AM 59.6650 -55.1272 220° Southwest  Level Estimated
Mon 11:02:00 AM 59.5748 -55.2747 220° Southwest  Level Estimated
Mon 11:03:00 AM 59.4845 -55.4214 220° Southwest  Level Estimated
Mon 11:04:00 AM 59.3940 -55.5673 219° Southwest  Level Estimated
Mon 11:05:00 AM 59.3033 -55.7125 219° Southwest  Level Estimated
Mon 11:06:00 AM 59.2125 -55.8569 219° Southwest  Level Estimated
Mon 11:07:00 AM 59.1215 -56.0005 219° Southwest  Level Estimated
Mon 11:08:00 AM 59.0304 -56.1433 219° Southwest  Level Estimated
Mon 11:09:00 AM 58.9391 -56.2854 219° Southwest  Level Estimated
Mon 11:10:00 AM 58.8476 -56.4268 219° Southwest  Level Estimated
Mon 11:11:00 AM 58.7560 -56.5674 219° Southwest  Level Estimated
Mon 11:11:06 AM 59.1000 -57.5833 218° Southwest 420 483 37,300  Level Gander Center
Mon 11:12:00 AM 58.6643 -56.7072 218° Southwest  Level Estimated
Mon 11:12:06 AM 59.0167 -57.7500 226° Southwest 420 483 38,000  Level Gander Center
Mon 11:13:00 AM 58.5724 -56.8464 218° Southwest  Level Estimated
Mon 11:13:06 AM 58.9500 -57.9167 232° Southwest 420 483 38,000  Level Gander Center
Mon 11:14:00 AM 58.4803 -56.9847 218° Southwest  Level Estimated
Mon 11:14:06 AM 58.8667 -58.1000 229° Southwest 420 483 38,000  Level Gander Center
Mon 11:15:00 AM 58.3881 -57.1224 218° Southwest  Level Estimated
Mon 11:15:06 AM 58.7667 -58.2333 215° Southwest 420 483 38,000  Level Gander Center
Mon 11:16:00 AM 58.2958 -57.2594 218° Southwest  Level Estimated
Mon 11:16:06 AM 58.6667 -58.3333 207° Southwest 420 483 38,000  Level Gander Center
Mon 11:17:06 AM 58.5667 -58.4333 208° Southwest 420 483 38,000  Level Gander Center
Mon 11:18:06 AM 58.4833 -58.5667 220° Southwest 420 483 38,000  Level Gander Center
Mon 11:19:06 AM 58.3833 -58.6833 211° Southwest 420 483 38,000  Level Gander Center
Mon 11:20:06 AM 58.2667 -58.7833 204° Southwest 420 483 38,000  Level Gander Center
Mon 11:21:06 AM 58.1667 -58.9167 215° Southwest 420 483 38,000  Level Gander Center
Mon 11:22:06 AM 58.0667 -59.0167 208° Southwest 420 483 38,000  Level Gander Center
Mon 11:23:06 AM 57.9667 -59.1167 208° Southwest 420 483 38,000  Level Gander Center
Mon 11:24:06 AM 57.8667 -59.2167 208° Southwest 420 483 38,000  Level Gander Center
Mon 11:25:06 AM 57.7500 -59.3500 211° Southwest 420 483 38,000  Level Gander Center
Mon 11:26:06 AM 57.6500 -59.4500 208° Southwest 420 483 38,000  Level Gander Center
Mon 11:27:06 AM 57.5667 -59.5333 208° Southwest 420 483 38,000  Level Gander Center
Mon 11:28:06 AM 57.4667 -59.6667 216° Southwest 420 483 38,000  Level Gander Center
Mon 11:29:06 AM 57.3667 -59.7667 208° Southwest 420 483 38,000  Level Gander Center
Mon 11:30:06 AM 57.2500 -59.8667 205° Southwest 420 483 38,000  Level Gander Center
Mon 11:31:06 AM 57.1500 -59.9667 208° Southwest 420 483 38,000  Level Gander Center
Mon 11:32:06 AM 57.0500 -60.0833 212° Southwest 420 483 38,000  Level Gander Center
Mon 11:33:06 AM 56.9500 -60.1833 209° Southwest 420 483 38,000  Level Gander Center
Mon 11:34:06 AM 56.8500 -60.3000 213° Southwest 420 483 38,000  Level Gander Center
Mon 11:35:06 AM 56.7500 -60.4000 209° Southwest 420 483 38,000  Level Gander Center
Mon 11:36:06 AM 56.6333 -60.5000 205° Southwest 420 483 38,000  Level Gander Center
Mon 11:37:06 AM 56.5500 -60.5833 209° Southwest 420 483 38,000  Level Gander Center
Mon 11:38:06 AM 56.4333 -60.7167 212° Southwest 420 483 38,000  Level Gander Center
Mon 11:39:47 AM 56.2667 -60.8667 207° Southwest 420 483 38,000  Level Gander Center
Mon 11:40:47 AM 56.1667 -60.9500 205° Southwest 420 483 38,000  Level Gander Center
Mon 11:42:06 AM 56.0333 -61.0667 206° Southwest 420 483 38,000  Level Gander Center
Mon 11:43:06 AM 55.9167 -61.2000 213° Southwest 420 483 38,000  Level Gander Center
Mon 11:44:06 AM 55.8167 -61.2833 205° Southwest 420 483 38,000  Level Gander Center
Mon 11:45:06 AM 55.7167 -61.3667 205° Southwest 420 483 38,000  Level Gander Center
Mon 11:46:06 AM 55.6167 -61.4833 213° Southwest 420 483 38,000  Level Gander Center
Mon 11:47:06 AM 55.5000 -61.5833 206° Southwest 420 483 38,000  Level Gander Center
Mon 11:48:06 AM 55.4000 -61.6667 205° Southwest 420 483 38,000  Level Gander Center
Mon 11:49:06 AM 55.3000 -61.7833 214° Southwest 420 483 38,000  Level Gander Center
Mon 11:50:06 AM 55.2000 -61.8667 205° Southwest 420 483 38,000  Level Gander Center
Mon 11:51:06 AM 55.0833 -61.9500 202° Southwest 420 483 38,000  Level Gander Center
Mon 11:52:06 AM 54.9833 -62.0333 206° Southwest 420 483 38,000  Level Gander Center
Mon 11:53:06 AM 54.8833 -62.1500 214° Southwest 420 483 38,000  Level Gander Center
Mon 11:54:06 AM 54.7833 -62.2333 206° Southwest 430 495 38,000  Level Gander Center
Mon 11:55:06 AM 54.6833 -62.3167 206° Southwest 420 483 38,000  Level Gander Center
Mon 11:56:06 AM 54.5667 -62.4333 210° Southwest 420 483 38,000  Level Gander Center
Mon 11:57:06 AM 54.4667 -62.5167 206° Southwest 420 483 38,000  Level Gander Center
Mon 11:58:06 AM 54.3500 -62.6000 203° Southwest 420 483 38,000  Level Gander Center
Mon 11:59:06 AM 54.2500 -62.6833 206° Southwest 420 483 38,000  Level Gander Center
Mon 12:00:06 PM 54.1500 -62.8000 214° Southwest 420 483 38,000  Level Gander Center
Mon 12:02:02 PM 53.9500 -62.9500 204° Southwest 420 483 38,000  Level Moncton Center
Mon 12:03:02 PM 53.8333 -63.0333 203° Southwest 420 483 38,000  Level Moncton Center
Mon 12:04:02 PM 53.7333 -63.1333 211° Southwest 430 495 38,000  Level Moncton Center
Mon 12:05:02 PM 53.6333 -63.2167 206° Southwest 420 483 38,000  Level Moncton Center
Mon 12:06:02 PM 53.5333 -63.3000 206° Southwest 430 495 38,000  Level Moncton Center
Mon 12:07:06 PM 53.4167 -63.4167 211° Southwest 420 483 38,000  Level Gander Center
Mon 12:08:06 PM 53.3167 -63.5000 206° Southwest 420 483 38,000  Level Gander Center
Mon 12:09:06 PM 53.2000 -63.5667 199° South 430 495 38,000  Level Gander Center
Mon 12:10:06 PM 53.0833 -63.6833 211° Southwest 430 495 38,000  Level Gander Center
Mon 12:11:06 PM 52.9833 -63.7500 202° Southwest 420 483 38,000  Level Gander Center
Mon 12:12:06 PM 52.8833 -63.8333 207° Southwest 430 495 38,000  Level Gander Center
Mon 12:13:06 PM 52.7833 -63.9333 211° Southwest 430 495 38,000  Level Gander Center
Mon 12:14:06 PM 52.6667 -64.0167 203° Southwest 420 483 38,000  Level Gander Center
Mon 12:15:06 PM 52.5667 -64.0833 202° Southwest 430 495 38,000  Level Gander Center
Mon 12:16:06 PM 52.4333 -64.1833 205° Southwest 430 495 38,000  Level Gander Center
Mon 12:17:02 PM 52.3500 -64.2667 211° Southwest 430 495 38,000  Level Moncton Center
Mon 12:18:02 PM 52.2500 -64.3500 207° Southwest 430 495 38,000  Level Moncton Center
Mon 12:19:02 PM 52.1333 -64.4167 199° South 430 495 38,000  Level Moncton Center
Mon 12:20:02 PM 52.0333 -64.5000 207° Southwest 430 495 38,000  Level Moncton Center
Mon 12:21:02 PM 51.9167 -64.5833 204° Southwest 430 495 38,000  Level Moncton Center
Mon 12:22:02 PM 51.8167 -64.6667 207° Southwest 430 495 38,000  Level Moncton Center
Mon 12:23:02 PM 51.7000 -64.7500 204° Southwest 430 495 38,000  Level Moncton Center
Mon 12:24:02 PM 51.6000 -64.8500 212° Southwest 430 495 38,000  Level Moncton Center
Mon 12:25:02 PM 51.4833 -64.9000 195° South 430 495 38,000  Level Moncton Center
Mon 12:26:02 PM 51.3833 -65.0167 216° Southwest 430 495 38,000  Level Moncton Center
Mon 12:27:02 PM 51.2667 -65.1000 204° Southwest 440 506 38,000  Level Moncton Center
Mon 12:28:02 PM 51.1500 -65.1667 200° South 430 495 38,000  Level Moncton Center
Mon 12:29:02 PM 51.0500 -65.2500 208° Southwest 430 495 38,000  Level Moncton Center
Mon 12:30:02 PM 50.9333 -65.3333 204° Southwest 430 495 38,000  Level Moncton Center
Mon 12:31:02 PM 50.8333 -65.4000 203° Southwest 430 495 38,000  Level Moncton Center
Mon 12:36:35 PM 50.2220 -65.8470 203° Southwest 433 498 38,000  Level FlightAware ADS-B
Mon 12:37:13 PM 50.1530 -65.8950 204° Southwest 431 496 38,000  Level FlightAware ADS-B
Mon 12:37:24 PM 50.1340 -65.9090 205° Southwest 431 496 38,000  Level FlightAware ADS-B
Mon 12:38:14 PM 50.0560 -65.9630 204° Southwest 431 496 38,000  Level FlightAware ADS-B
Mon 12:38:51 PM 49.9990 -66.0020 204° Southwest 431 496 38,000  Level FlightAware ADS-B
Mon 12:39:19 PM 49.9250 -66.0540 204° Southwest 432 497 38,000  Level FlightAware ADS-B
Mon 12:39:46 PM 49.8770 -66.0880 205° Southwest 432 497 38,000  Level FlightAware ADS-B
Mon 12:40:38 PM 49.7800 -66.1550 204° Southwest 435 501 38,000  Level FlightAware ADS-B
Mon 12:41:15 PM 49.7180 -66.1970 204° Southwest 435 501 38,000  Level FlightAware ADS-B
Mon 12:41:50 PM 49.6490 -66.2450 204° Southwest 434 499 38,000  Level FlightAware ADS-B
Mon 12:42:15 PM 49.6080 -66.2730 204° Southwest 434 499 38,000  Level FlightAware ADS-B
Mon 12:42:57 PM 49.5290 -66.3270 204° Southwest 433 498 38,000  Level FlightAware ADS-B
Mon 12:43:30 PM 49.4640 -66.3700 203° Southwest 432 497 38,000  Level FlightAware ADS-B
Mon 12:44:11 PM 49.3900 -66.4210 204° Southwest 433 498 38,000  Level FlightAware ADS-B
Mon 12:44:51 PM 49.3160 -66.4710 204° Southwest 433 498 38,000  Level FlightAware ADS-B
Mon 12:45:28 PM 49.2470 -66.5170 204° Southwest 433 498 38,000  Level FlightAware ADS-B
Mon 12:46:08 PM 49.1780 -66.5640 204° Southwest 434 499 38,000  Level FlightAware ADS-B
Mon 12:47:02 PM 49.0760 -66.6320 204° Southwest 434 499 38,000  Level FlightAware ADS-B
Mon 12:47:26 PM 49.0330 -66.6610 204° Southwest 435 501 38,000  Level FlightAware ADS-B
Mon 12:48:02 PM 48.9650 -66.7060 203° Southwest 435 501 38,000  Level FlightAware ADS-B
Mon 12:48:33 PM 48.9090 -66.7430 203° Southwest 435 501 38,000  Level FlightAware ADS-B
Mon 12:49:06 PM 48.8480 -66.7830 203° Southwest 435 501 38,000  Level FlightAware ADS-B
Mon 12:50:08 PM 48.7340 -66.8590 204° Southwest 433 498 38,000  Level FlightAware ADS-B
Mon 12:51:08 PM 48.6220 -66.9320 203° Southwest 434 499 38,000  Level FlightAware ADS-B
Mon 12:52:16 PM 48.4980 -67.0130 203° Southwest 436 502 38,000  Level FlightAware ADS-B
Mon 12:52:57 PM 48.4210 -67.0630 203° Southwest 440 506 38,000  Level FlightAware ADS-B
Mon 12:53:34 PM 48.3530 -67.1070 203° Southwest 441 507 38,000  Level FlightAware ADS-B
Mon 12:54:11 PM 48.2830 -67.1520 203° Southwest 442 509 38,000  Level FlightAware ADS-B
Mon 12:54:39 PM 48.2320 -67.1850 203° Southwest 441 507 38,000  Level FlightAware ADS-B
Mon 12:55:07 PM 48.1780 -67.2200 203° Southwest 440 506 38,000  Level FlightAware ADS-B
Mon 12:56:27 PM 48.0320 -67.3130 203° Southwest 435 501 38,000  Level FlightAware ADS-B
Mon 12:57:07 PM 47.9560 -67.3610 203° Southwest 434 499 38,000  Level FlightAware ADS-B
Mon 12:57:42 PM 47.8910 -67.4030 203° Southwest 435 501 38,000  Level FlightAware ADS-B
Mon 12:58:17 PM 47.8260 -67.4440 203° Southwest 436 502 38,000  Level FlightAware ADS-B
Mon 12:58:55 PM 47.7660 -67.4820 203° Southwest 436 502 38,000  Level FlightAware ADS-B
Mon 12:59:33 PM 47.6860 -67.5320 203° Southwest 434 499 38,000  Level FlightAware ADS-B
Mon 01:00:44 PM 47.5530 -67.6150 203° Southwest 433 498 38,000  Level FlightAware ADS-B
Mon 01:01:18 PM 47.4900 -67.6550 203° Southwest 434 499 38,000  Level FlightAware ADS-B
Mon 01:01:52 PM 47.4340 -67.6900 203° Southwest 435 501 38,000  Level FlightAware ADS-B
Mon 01:02:56 PM 47.3100 -67.7660 203° Southwest 435 501 38,000  Level FlightAware ADS-B
Mon 01:03:37 PM 47.2350 -67.8130 203° Southwest 436 502 38,000  Level FlightAware ADS-B
Mon 01:04:42 PM 47.1130 -67.8880 203° Southwest 440 506 38,000  Level FlightAware ADS-B
Mon 01:05:17 PM 47.0480 -67.9280 203° Southwest 442 509 38,000  Level FlightAware ADS-B
Mon 01:05:53 PM 46.9810 -67.9690 203° Southwest 443 510 38,000  Level FlightAware ADS-B
Mon 01:06:26 PM 46.9260 -68.0020 202° Southwest 442 509 38,000  Level FlightAware ADS-B
Mon 01:07:51 PM 46.9154 -68.0089 204° Southwest 443 510 38,000  Level FlightAware ADS-B
Mon 01:08:58 PM 46.6210 -68.1580 199° South 444 511 38,000  Level FlightAware ADS-B
Mon 01:09:26 PM 46.5660 -68.1810 196° South 444 511 38,000  Level FlightAware ADS-B
Mon 01:09:59 PM 46.5010 -68.2080 196° South 446 513 38,000  Level FlightAware ADS-B
Mon 01:10:57 PM 46.3850 -68.2560 196° South 450 518 38,000  Level FlightAware ADS-B
Mon 01:12:13 PM 46.2320 -68.3190 196° South 452 520 38,000  Level FlightAware ADS-B
Mon 01:12:54 PM 46.1488 -68.3532 196° South 452 520 38,000  Level FlightAware ADS-B
Mon 01:13:32 PM 46.0870 -68.3770 195° South 452 520 38,000  Level FlightAware ADS-B
Mon 01:13:47 PM 46.0430 -68.3961 197° South 448 516 38,000  Level FlightAware ADS-B
Mon 01:14:36 PM 45.9455 -68.4358 196° South 444 511 38,000  Level FlightAware ADS-B
Mon 01:15:49 PM 45.8031 -68.4934 196° South 445 512 38,000  Level FlightAware ADS-B
Mon 01:16:42 PM 45.6978 -68.5361 196° South 443 510 38,000  Level FlightAware ADS-B
Mon 01:17:20 PM 45.6290 -68.5630 195° South 440 506 38,000  Level FlightAware ADS-B
Mon 01:18:00 PM 45.5550 -68.5930 196° South 439 505 38,000  Level FlightAware ADS-B
Mon 01:18:37 PM 45.4730 -68.6260 196° South 438 504 38,000  Level FlightAware ADS-B
Mon 01:19:06 PM 45.5011 -68.6144 16° North 440 506 38,000  Level FlightAware ADS-B
Mon 01:19:42 PM 45.3457 -68.6763 196° South 439 505 38,000  Level FlightAware ADS-B
Mon 01:20:22 PM 45.2677 -68.7071 196° South 439 505 38,000  Level FlightAware ADS-B
Mon 01:20:52 PM 45.2235 -68.7246 196° South 439 505 38,000  Level FlightAware ADS-B
Mon 01:21:23 PM 45.1490 -68.7539 196° South 439 505 38,000  Level FlightAware ADS-B
Mon 01:21:53 PM 45.0904 -68.7771 196° South 436 502 38,000  Level FlightAware ADS-B
Mon 01:22:26 PM 45.0266 -68.8021 196° South 436 502 38,000  Level FlightAware ADS-B
Mon 01:23:00 PM 44.9712 -68.8237 195° South 434 499 38,000  Level FlightAware ADS-B
Mon 01:23:33 PM 44.8967 -68.8527 195° South 432 497 38,000  Level FlightAware ADS-B
Mon 01:23:51 PM 44.8629 -68.8665 196° South 432 497 38,000  Level FlightAware ADS-B
Mon 01:24:21 PM 44.8089 -68.8955 201° Southwest 420 483 38,000  Level FlightAware ADS-B
Mon 01:24:56 PM 44.7570 -68.9311 206° Southwest 417 480 38,000  Level FlightAware ADS-B
Mon 01:25:38 PM 44.7424 -68.9413 206° Southwest 414 476 38,000  Level FlightAware ADS-B
Mon 01:26:17 PM 44.6102 -69.0322 206° Southwest 412 474 38,000  Level FlightAware ADS-B
Mon 01:26:55 PM 44.5442 -69.0769 206° Southwest 408 470 38,000  Level FlightAware ADS-B
Mon 01:27:26 PM 44.4943 -69.1109 206° Southwest 410 472 38,000  Level FlightAware ADS-B
Mon 01:27:57 PM 44.4382 -69.1488 206° Southwest 410 472 38,000  Level FlightAware ADS-B
Mon 01:28:37 PM 44.3701 -69.1946 206° Southwest 408 470 38,000  Level FlightAware ADS-B
Mon 01:29:09 PM 44.3143 -69.2321 206° Southwest 410 472 38,000  Level FlightAware ADS-B
Mon 01:29:47 PM 44.2566 -69.2709 206° Southwest 412 474 38,000  Level FlightAware ADS-B
Mon 01:30:28 PM 44.1802 -69.3220 206° Southwest 412 474 38,000  Level FlightAware ADS-B
Mon 01:30:59 PM 44.1268 -69.3577 206° Southwest 412 474 38,000  Level FlightAware ADS-B
Mon 01:31:29 PM 44.0742 -69.3927 206° Southwest 409 471 38,000  Level FlightAware ADS-B
Mon 01:31:59 PM 44.0222 -69.4273 206° Southwest 412 474 38,000  Level FlightAware ADS-B
Mon 01:32:33 PM 43.9693 -69.4624 206° Southwest 419 482 38,000  Level FlightAware ADS-B
Mon 01:33:05 PM 43.9078 -69.5030 205° Southwest 418 481 38,000  Level FlightAware ADS-B
Mon 01:33:37 PM 43.8626 -69.5330 206° Southwest 415 478 38,000  Level FlightAware ADS-B
Mon 01:33:53 PM 43.8269 -69.5575 206° Southwest 405 466 38,000  Level FlightAware ADS-B (EPKK / KRK)
Mon 01:34:33 PM 43.7892 -69.5953 216° Southwest 396 456 38,000  Level FlightAware ADS-B (EPKK / KRK)
Mon 01:35:10 PM 43.7130 -69.6771 218° Southwest 398 458 38,000  Level FlightAware ADS-B
Mon 01:35:16 PM 43.7040 -69.6867 218° Southwest 400 460 38,000  Level FlightAware ADS-B
Mon 01:35:29 PM 43.6847 -69.7074 218° Southwest 394 453 38,000  Level FlightAware ADS-B
Mon 01:35:49 PM 43.6550 -69.7391 218° Southwest 400 460 38,000  Level FlightAware ADS-B (EPKK / KRK)
Mon 01:36:29 PM 43.5966 -69.8010 218° Southwest 393 452 38,000  Level FlightAware ADS-B
Mon 01:37:01 PM 43.5533 -69.8471 218° Southwest 399 459 38,000  Level FlightAware ADS-B (EPKK / KRK)
Mon 01:37:05 PM 43.5446 -69.8562 217° Southwest 392 451 38,000  Level FlightAware ADS-B
Mon 01:37:42 PM 43.4894 -69.9150 218° Southwest 401 461 38,000  Level FlightAware ADS-B
Mon 01:38:12 PM 43.4475 -69.9593 218° Southwest 401 461 38,000  Level FlightAware ADS-B (EPKK / KRK)
Mon 01:38:43 PM 43.4007 -70.0085 217° Southwest 402 463 38,000  Level FlightAware ADS-B
Mon 01:39:13 PM 43.3565 -70.0550 217° Southwest 402 463 38,000  Level FlightAware ADS-B
Mon 01:39:47 PM 43.3062 -70.1076 217° Southwest 400 460 38,000  Level FlightAware ADS-B
Mon 01:40:19 PM 43.2594 -70.1566 217° Southwest 402 463 38,000  Level FlightAware ADS-B
Mon 01:40:49 PM 43.2184 -70.1994 217° Southwest 404 465 38,000  Level FlightAware ADS-B
Mon 01:41:19 PM 43.1705 -70.2493 217° Southwest 405 466 38,000  Level FlightAware ADS-B
Mon 01:41:50 PM 43.1247 -70.2969 217° Southwest 406 467 38,000  Level FlightAware ADS-B
Mon 01:42:23 PM 43.0750 -70.3485 217° Southwest 407 468 38,000  Level FlightAware ADS-B (EPKK / KRK)
Mon 01:42:54 PM 43.0288 -70.3981 218° Southwest 403 464 38,000  Level FlightAware ADS-B (EPKK / KRK)
Mon 01:43:25 PM 42.9857 -70.4477 220° Southwest 400 460 38,000  Level FlightAware ADS-B (SBBR / BSB)
Mon 01:43:55 PM 42.9430 -70.4962 220° Southwest 399 459 38,000  Level FlightAware ADS-B (EPKK / KRK)
Mon 01:44:26 PM 42.9188 -70.5235 220° Southwest 401 461 38,000  Level FlightAware ADS-B (SBBR / BSB)
Mon 01:44:49 PM 42.8663 -70.5823 219° Southwest 396 456 38,000  Level FlightAware ADS-B
Mon 01:44:59 PM 42.8509 -70.5995 219° Southwest 397 457 38,000  Level FlightAware ADS-B
Mon 01:45:09 PM 42.8382 -70.6136 219° Southwest 397 457 38,000  Level FlightAware ADS-B
Mon 01:45:16 PM 42.8272 -70.6259 219° Southwest 397 457 38,000  Level FlightAware ADS-B
Mon 01:45:26 PM 42.8121 -70.6427 219° Southwest 398 458 38,000  Level FlightAware ADS-B
Mon 01:45:59 PM 42.7650 -70.6952 219° Southwest 398 458 38,000  Level FlightAware ADS-B
Mon 01:46:37 PM 42.7099 -70.7563 219° Southwest 400 460 38,000  Level FlightAware ADS-B
Mon 01:47:09 PM 42.6637 -70.8075 219° Southwest 399 459 38,000  Level FlightAware ADS-B
Mon 01:47:43 PM 42.6146 -70.8617 219° Southwest 404 465 38,000  Level FlightAware ADS-B (SBBR / BSB)
Mon 01:47:52 PM 42.6010 -70.8768 219° Southwest 398 458 38,000  Level FlightAware ADS-B
Mon 01:48:29 PM 42.5467 -70.9367 219° Southwest 401 461 38,000  Level FlightAware ADS-B
Mon 01:48:39 PM 42.5372 -70.9471 219° Southwest 408 470 38,000  Level FlightAware ADS-B (EPKK / KRK)
Mon 01:48:50 PM 42.5159 -70.9707 219° Southwest 409 471 38,000  Level FlightAware ADS-B (SBBR / BSB)
Mon 01:48:57 PM 42.5152 -70.9714 219° Southwest 408 470 38,000  Level FlightAware ADS-B (KOWD)
Mon 01:49:29 PM 42.4594 -71.0326 219° Southwest 401 461 38,000  Level FlightAware ADS-B
Mon 01:49:38 PM 42.4460 -71.0473 219° Southwest 401 461 38,000  Level FlightAware ADS-B
Mon 01:49:48 PM 42.4354 -71.0589 219° Southwest 407 468 38,000  Level FlightAware ADS-B (SBBR / BSB)
Mon 01:50:10 PM 42.4022 -71.0953 219° Southwest 406 467 38,000  Level FlightAware ADS-B (KOWD)
Mon 01:50:26 PM 42.3761 -71.1238 219° Southwest 399 459 38,000  Level FlightAware ADS-B
Mon 01:50:57 PM 42.3311 -71.1728 219° Southwest 404 465 38,000  Level FlightAware ADS-B (SBBR / BSB)
Mon 01:51:09 PM 42.3138 -71.1918 219° Southwest 398 458 38,000  Level FlightAware ADS-B
Mon 01:51:29 PM 42.2884 -71.2194 219° Southwest 403 464 38,000  Level FlightAware ADS-B (SBBR / BSB)
Mon 01:51:39 PM 42.2699 -71.2395 219° Southwest 396 456 38,000  Level FlightAware ADS-B
Mon 01:51:47 PM 42.2594 -71.2509 219° Southwest 396 456 38,000  Level FlightAware ADS-B
Mon 01:52:00 PM 42.2394 -71.2727 219° Southwest 395 455 38,000  Level FlightAware ADS-B
Mon 01:52:10 PM 42.2577 -71.2527 39° Northeast 401 461 38,000  Level FlightAware ADS-B (KOWD)
Mon 01:52:16 PM 42.2160 -71.2981 219° Southwest 400 460 38,000  Level FlightAware ADS-B (EPKK / KRK)
Mon 01:52:30 PM 42.1984 -71.3174 219° Southwest 394 453 38,000  Level FlightAware ADS-B
Mon 01:53:00 PM 42.1536 -71.3658 219° Southwest 394 453 38,000  Level FlightAware ADS-B
Mon 01:53:30 PM 42.1104 -71.4126 219° Southwest 393 452 38,000  Level FlightAware ADS-B
Mon 01:54:03 PM 42.0758 -71.4500 219° Southwest 398 458 38,000  Level FlightAware ADS-B (KOWD)
Mon 01:54:35 PM 42.0176 -71.5127 219° Southwest 398 458 38,000  Level FlightAware ADS-B (EPKK / KRK)
Mon 01:54:45 PM 42.0063 -71.5249 219° Southwest 400 460 38,000  Level FlightAware ADS-B (EPKK / KRK)
Mon 01:55:20 PM 41.9519 -71.5835 219° Southwest 394 453 38,000  Level FlightAware ADS-B
Mon 01:55:26 PM 41.9451 -71.5908 218° Southwest 401 461 38,000  Level FlightAware ADS-B (KOWD)
Mon 01:55:59 PM 41.8961 -71.6434 219° Southwest 394 453 38,000  Level FlightAware ADS-B
Mon 01:56:30 PM 41.8527 -71.6898 219° Southwest 394 453 38,000  Level FlightAware ADS-B
Mon 01:57:03 PM 41.8059 -71.7399 219° Southwest 398 458 38,000  Level FlightAware ADS-B (KOWD)
Mon 01:57:34 PM 41.7609 -71.7878 218° Southwest 398 458 38,000  Level FlightAware ADS-B (SBBR / BSB)
Mon 01:58:05 PM 41.7205 -71.8307 218° Southwest 399 459 38,000  Level FlightAware ADS-B (SBBR / BSB)
Mon 01:58:37 PM 41.6683 -71.8862 218° Southwest 397 457 38,000  Level FlightAware ADS-B (KSNC)
Mon 01:59:08 PM 41.6300 -71.9268 218° Southwest 399 459 38,000  Level FlightAware ADS-B (SBBR / BSB)
Mon 01:59:41 PM 41.5825 -71.9771 218° Southwest 399 459 38,000  Level FlightAware ADS-B (KOWD)
Mon 01:59:59 PM 41.5531 -72.0082 218° Southwest 398 458 38,000  Level FlightAware ADS-B (KOWD)
Mon 02:00:32 PM 41.5155 -72.0479 218° Southwest 397 457 38,000  Level FlightAware ADS-B (KOWD)
Mon 02:01:03 PM 41.4608 -72.1054 218° Southwest 396 456 38,000  Level FlightAware ADS-B (KSNC)
Mon 02:01:35 PM 41.4111 -72.1578 218° Southwest 394 453 38,000  Level FlightAware ADS-B (KSNC)
Mon 02:02:08 PM 41.3654 -72.2059 218° Southwest 391 450 38,000  Level FlightAware ADS-B (SBBR / BSB)
Mon 02:02:44 PM 41.3143 -72.2595 218° Southwest 390 449 38,000  Level FlightAware ADS-B (KSNC)
Mon 02:03:16 PM 41.2696 -72.3061 218° Southwest 390 449 38,000  Level FlightAware ADS-B (KSNC)
Mon 02:03:46 PM 41.2280 -72.3495 218° Southwest 390 449 38,000  Level FlightAware ADS-B (KSNC)
Mon 02:04:18 PM 41.1820 -72.3973 218° Southwest 390 449 38,000  Level FlightAware ADS-B (SBBR / BSB)
Mon 02:04:57 PM 41.1264 -72.4551 218° Southwest 389 448 38,000  Level FlightAware ADS-B (KSNC)
Mon 02:05:35 PM 41.0734 -72.5103 218° Southwest 390 449 38,000  Level FlightAware ADS-B (KSNC)
Mon 02:06:07 PM 41.0263 -72.5591 218° Southwest 393 452 38,000  Level FlightAware ADS-B (SBBR / BSB)
Mon 02:06:37 PM 40.9850 -72.6017 218° Southwest 394 453 38,000  Level FlightAware ADS-B (SBBR / BSB)
Mon 02:07:09 PM 40.9383 -72.6498 218° Southwest 391 450 38,000  Level FlightAware ADS-B (KSNC)
Mon 02:07:52 PM 40.8771 -72.7128 218° Southwest 389 448 38,000  Level FlightAware ADS-B (KSNC)
Mon 02:08:31 PM 40.8224 -72.7690 218° Southwest 388 447 38,000  Level FlightAware ADS-B (KSNC)
Mon 02:09:05 PM 40.7742 -72.8184 218° Southwest 388 447 38,000  Level FlightAware ADS-B (KWWD)
Mon 02:09:37 PM 40.7284 -72.8653 218° Southwest 388 447 38,000  Level FlightAware ADS-B (KWWD)
Mon 02:10:10 PM 40.6814 -72.9133 218° Southwest 390 449 38,000  Level FlightAware ADS-B (KWWD)
Mon 02:10:47 PM 40.6310 -72.9646 218° Southwest 393 452 38,000  Level FlightAware ADS-B (KSNC)
Mon 02:10:55 PM 40.6163 -72.9796 218° Southwest 388 447 38,000  Level FlightAware ADS-B (KWWD)
Mon 02:11:27 PM 40.5721 -73.0247 218° Southwest 393 452 38,000  Level FlightAware ADS-B (KSNC)
Mon 02:11:37 PM 40.5570 -73.0399 217° Southwest 387 445 38,000  Level FlightAware ADS-B (KWWD)
Mon 02:12:11 PM 40.5076 -73.0900 218° Southwest 387 445 38,000  Level FlightAware ADS-B (KWWD)
Mon 02:12:20 PM 40.4941 -73.1037 218° Southwest 387 445 38,000  Level FlightAware ADS-B (KWWD)
Mon 02:12:51 PM 40.4503 -73.1481 218° Southwest 387 445 38,000  Level FlightAware ADS-B (KWWD)
Mon 02:13:38 PM 40.3833 -73.2158 218° Southwest 391 450 38,000  Level FlightAware ADS-B (KSNC)
Mon 02:14:09 PM 40.3381 -73.2614 218° Southwest 392 451 38,000  Level FlightAware ADS-B (KSNC)
Mon 02:14:39 PM 40.2958 -73.3040 218° Southwest 393 452 38,000  Level FlightAware ADS-B (KSNC)
Mon 02:15:16 PM 40.2414 -73.3586 217° Southwest 394 453 38,000  Level FlightAware ADS-B (KSNC)
Mon 02:15:51 PM 40.1910 -73.4090 217° Southwest 394 453 38,000  Level FlightAware ADS-B (KSNC)
Mon 02:16:22 PM 40.1484 -73.4515 217° Southwest 395 455 38,000  Level FlightAware ADS-B (KSNC)
Mon 02:16:30 PM 40.1357 -73.4642 217° Southwest 395 455 38,000  Level FlightAware ADS-B (KSNC)
Mon 02:17:02 PM 40.0881 -73.5119 217° Southwest 396 456 38,000  Level FlightAware ADS-B (KSNC)
Mon 02:17:33 PM 40.0427 -73.5571 217° Southwest 397 457 38,000  Level FlightAware ADS-B (KSNC)
Mon 02:18:00 PM 40.0038 -73.5958 217° Southwest 397 457 38,000  Level FlightAware ADS-B (KSNC)
Mon 02:18:14 PM 39.9830 -73.6165 217° Southwest 397 457 38,000  Level FlightAware ADS-B (KSNC)
Mon 02:18:45 PM 39.9389 -73.6601 217° Southwest 399 459 38,000  Level FlightAware ADS-B (KSNC)
Mon 02:19:19 PM 39.8886 -73.7101 217° Southwest 399 459 38,000  Level FlightAware ADS-B (KSNC)
Mon 02:19:49 PM 39.8442 -73.7540 217° Southwest 398 458 38,000  Level FlightAware ADS-B (KSNC)
Mon 02:20:21 PM 39.7978 -73.7997 217° Southwest 393 452 38,000  Level FlightAware ADS-B (KWWD)
Mon 02:20:32 PM 39.7809 -73.8164 217° Southwest 393 452 38,000  Level FlightAware ADS-B (KWWD)
Mon 02:21:11 PM 39.7241 -73.8724 217° Southwest 400 460 38,000  Level FlightAware ADS-B (KWWD)
Mon 02:21:49 PM 39.6667 -73.9287 217° Southwest 402 463 38,000  Level FlightAware ADS-B (KWWD)
Mon 02:22:21 PM 39.6197 -73.9749 217° Southwest 403 464 38,000  Level FlightAware ADS-B (KWWD)
Mon 02:22:53 PM 39.5728 -74.0208 217° Southwest 402 463 38,000  Level FlightAware ADS-B (KWWD)
Mon 02:23:33 PM 39.5141 -74.0782 217° Southwest 401 461 38,000  Level FlightAware ADS-B (KWWD)
Mon 02:24:06 PM 39.4645 -74.1266 217° Southwest 401 461 38,000  Level FlightAware ADS-B (KWWD)
Mon 02:24:42 PM 39.4108 -74.1788 217° Southwest 401 461 38,000  Level FlightAware ADS-B (KWWD)
Mon 02:25:13 PM 39.3660 -74.2224 217° Southwest 401 461 38,000  Level FlightAware ADS-B (KWWD)
Mon 02:25:51 PM 39.3092 -74.2775 217° Southwest 400 460 38,000  Level FlightAware ADS-B (KWWD)
Mon 02:26:22 PM 39.2639 -74.3210 217° Southwest 395 455 38,000  Level FlightAware ADS-B (KWWD)
Mon 02:26:52 PM 39.2149 -74.3597 211° Southwest 399 459 38,000  Level FlightAware ADS-B (KWWD)
Mon 02:27:30 PM 39.1545 -74.4065 211° Southwest 400 460 38,000  Level FlightAware ADS-B (KWWD)
Mon 02:28:08 PM 39.0929 -74.4542 211° Southwest 402 463 38,000  Level FlightAware ADS-B (KWWD)
Mon 02:28:49 PM 39.0320 -74.5010 211° Southwest 410 472 38,000  Level FlightAware ADS-B
Mon 02:29:32 PM 38.9572 -74.5591 211° Southwest 410 472 38,000  Level FlightAware ADS-B (KWWD)
Mon 02:30:03 PM 38.9054 -74.5990 211° Southwest 412 474 38,000  Level FlightAware ADS-B (KWWD)
Mon 02:30:39 PM 38.8490 -74.6426 211° Southwest 413 475 38,000  Level FlightAware ADS-B (KWWD)
Mon 02:31:12 PM 38.7924 -74.6862 211° Southwest 415 478 38,000  Level FlightAware ADS-B (KWWD)
Mon 02:31:50 PM 38.7334 -74.7314 211° Southwest 415 478 38,000  Level FlightAware ADS-B (EGAA / BFS)
Mon 02:32:22 PM 38.6769 -74.7747 211° Southwest 416 479 38,000  Level FlightAware ADS-B (KWWD)
Mon 02:33:01 PM 38.6132 -74.8235 211° Southwest 417 480 38,000  Level FlightAware ADS-B (KWWD)
Mon 02:33:33 PM 38.5597 -74.8644 211° Southwest 416 479 38,000  Level FlightAware ADS-B (KWWD)
Mon 02:34:03 PM 38.5109 -74.9016 211° Southwest 418 481 38,000  Level FlightAware ADS-B (KWWD)
Mon 02:34:20 PM 38.4837 -74.9224 211° Southwest 412 474 38,000  Level FlightAware ADS-B (KWWD)
Mon 02:34:51 PM 38.4317 -74.9619 211° Southwest 411 473 38,000  Level FlightAware ADS-B (KWWD)
Mon 02:35:23 PM 38.3785 -75.0022 211° Southwest 411 473 38,000  Level FlightAware ADS-B (KWWD)
Mon 02:35:32 PM 38.3799 -75.0012 30° Northeast 419 482 38,000  Level FlightAware ADS-B (EGAA / BFS)
Mon 02:36:11 PM 38.2993 -75.0624 211° Southwest 420 483 38,000  Level FlightAware ADS-B (EGAA / BFS)
Mon 02:36:43 PM 38.2451 -75.1033 211° Southwest 414 476 38,000  Level FlightAware ADS-B (KWWD)
Mon 02:37:13 PM 38.1940 -75.1418 211° Southwest 422 486 38,000  Level FlightAware ADS-B (EGAA / BFS)
Mon 02:37:51 PM 38.1298 -75.1902 211° Southwest 416 479 38,000  Level FlightAware ADS-B (KWWD)
Mon 02:38:23 PM 38.0760 -75.2306 211° Southwest 416 479 38,000  Level FlightAware ADS-B (KWWD)
Mon 02:38:59 PM 38.0468 -75.2525 211° Southwest 425 489 38,000  Level FlightAware ADS-B (EGAA / BFS)
Mon 02:39:33 PM 37.9580 -75.3191 211° Southwest 427 491 38,000  Level FlightAware ADS-B (KWWD)
Mon 02:40:03 PM 37.9068 -75.3574 211° Southwest 428 493 38,000  Level FlightAware ADS-B (KWWD)
Mon 02:40:34 PM 37.8570 -75.3945 210° Southwest 428 493 38,000  Level FlightAware ADS-B (KWWD)
Mon 02:41:04 PM 37.8027 -75.4351 211° Southwest 427 491 38,000  Level FlightAware ADS-B (KWWD)
Mon 02:41:36 PM 37.7487 -75.4752 210° Southwest 429 494 38,000  Level FlightAware ADS-B (EGAA / BFS)
Mon 02:42:07 PM 37.6971 -75.5135 210° Southwest 428 493 38,000  Level FlightAware ADS-B (EGAA / BFS)
Mon 02:42:44 PM 37.6331 -75.5609 210° Southwest 426 490 38,000  Level FlightAware ADS-B (KWWD)
Mon 02:43:14 PM 37.5846 -75.5969 210° Southwest 418 481 38,000  Level FlightAware ADS-B (KWWD)
Mon 02:43:44 PM 37.5321 -75.6357 210° Southwest 417 480 38,000  Level FlightAware ADS-B (KWWD)
Mon 02:44:22 PM 37.4662 -75.6843 210° Southwest 416 479 38,000  Level FlightAware ADS-B (KWWD)
Mon 02:44:54 PM 37.4136 -75.7231 210° Southwest 416 479 38,000  Level FlightAware ADS-B (KWWD)
Mon 02:45:33 PM 37.3466 -75.7723 210° Southwest 416 479 38,000  Level FlightAware ADS-B (KWWD)
Mon 02:46:14 PM 37.2781 -75.8224 210° Southwest 416 479 38,000  Level FlightAware ADS-B (KWWD)
Mon 02:46:55 PM 37.2099 -75.8723 210° Southwest 415 478 38,000  Level FlightAware ADS-B (KWWD)
Mon 02:47:39 PM 37.1347 -75.9272 210° Southwest 416 479 38,000  Level FlightAware ADS-B (KWWD)
Mon 02:48:12 PM 37.0785 -75.9681 210° Southwest 415 478 38,000  Level FlightAware ADS-B (KWWD)
Mon 02:48:49 PM 37.0168 -76.0130 210° Southwest 414 476 38,000  Level FlightAware ADS-B (KWWD)
Mon 02:49:24 PM 36.9572 -76.0563 210° Southwest 414 476 38,000  Level FlightAware ADS-B (KWWD)
Mon 02:50:00 PM 36.8978 -76.0993 210° Southwest 413 475 38,000  Level FlightAware ADS-B (KWWD)
Mon 02:50:34 PM 36.8401 -76.1410 210° Southwest 413 475 38,000  Level FlightAware ADS-B (KWWD)
Mon 02:51:32 PM 36.7440 -76.2104 210° Southwest 413 475 38,000  Level FlightAware ADS-B (KWWD)
Mon 02:52:37 PM 36.6353 -76.2886 210° Southwest 410 472 38,000  Level FlightAware ADS-B (KWWD)
Mon 02:53:14 PM 36.5736 -76.3328 210° Southwest 410 472 38,000  Level FlightAware ADS-B (KWWD)
Mon 02:54:09 PM 36.4880 -76.3940 210° Southwest 409 471 38,000  Level FlightAware ADS-B
Mon 02:55:04 PM 36.3970 -76.4590 210° Southwest 406 467 38,000  Level FlightAware ADS-B
Mon 02:55:33 PM 36.3480 -76.4940 210° Southwest 405 466 38,000  Level FlightAware ADS-B
Mon 02:56:34 PM 36.2510 -76.5630 210° Southwest 404 465 38,000  Level FlightAware ADS-B
Mon 02:57:09 PM 36.1940 -76.6030 210° Southwest 405 466 38,000  Level FlightAware ADS-B
Mon 02:57:44 PM 36.1370 -76.6430 210° Southwest 404 465 38,000  Level FlightAware ADS-B
Mon 02:58:29 PM 36.0640 -76.6950 210° Southwest 405 466 38,000  Level FlightAware ADS-B
Mon 02:59:25 PM 35.9800 -76.7540 210° Southwest 406 467 38,000  Level FlightAware ADS-B
Mon 02:59:56 PM 35.9190 -76.7970 210° Southwest 407 468 38,000  Level FlightAware ADS-B
Mon 03:00:35 PM 35.8560 -76.8420 210° Southwest 407 468 38,000  Level FlightAware ADS-B
Mon 03:01:14 PM 35.7930 -76.8860 210° Southwest 406 467 38,000  Level FlightAware ADS-B
Mon 03:01:26 PM 35.7720 -76.9000 208° Southwest 405 466 38,000  Level FlightAware ADS-B
Mon 03:02:05 PM 35.7170 -76.9390 210° Southwest 384 442 38,000  Level FlightAware ADS-B
Mon 03:02:40 PM 35.6510 -76.9850 210° Southwest 403 464 38,000  Level FlightAware ADS-B
Mon 03:03:13 PM 35.6000 -77.0210 210° Southwest 403 464 38,000  Level FlightAware ADS-B
Mon 03:04:16 PM 35.4980 -77.0920 210° Southwest 403 464 38,000  Level FlightAware ADS-B
Mon 03:04:47 PM 35.4460 -77.1280 209° Southwest 403 464 38,000  Level FlightAware ADS-B
Mon 03:05:57 PM 35.3276 -77.2095 209° Southwest 404 465 38,000  Level FlightAware ADS-B
Mon 03:06:27 PM 35.2800 -77.2423 209° Southwest 403 464 38,000  Level FlightAware ADS-B
Mon 03:06:57 PM 35.2284 -77.2779 209° Southwest 403 464 38,000  Level FlightAware ADS-B
Mon 03:07:37 PM 35.1747 -77.3149 209° Southwest 403 464 38,000  Level FlightAware ADS-B
Mon 03:08:07 PM 35.1154 -77.3556 209° Southwest 403 464 38,000  Level FlightAware ADS-B
Mon 03:08:37 PM 35.0662 -77.3894 209° Southwest 404 465 38,000  Level FlightAware ADS-B
Mon 03:09:07 PM 35.0193 -77.4216 209° Southwest 405 466 38,000  Level FlightAware ADS-B
Mon 03:09:37 PM 34.9698 -77.4555 209° Southwest 406 467 38,000  Level FlightAware ADS-B
Mon 03:10:07 PM 34.9207 -77.4890 209° Southwest 407 468 38,000  Level FlightAware ADS-B
Mon 03:10:37 PM 34.8705 -77.5233 209° Southwest 408 470 38,000  Level FlightAware ADS-B
Mon 03:11:07 PM 34.8202 -77.5576 209° Southwest 409 471 38,000  Level FlightAware ADS-B
Mon 03:11:37 PM 34.7715 -77.5906 209° Southwest 409 471 38,000  Level FlightAware ADS-B
Mon 03:12:07 PM 34.7208 -77.6251 209° Southwest 409 471 38,000  Level FlightAware ADS-B
Mon 03:12:37 PM 34.6732 -77.6574 209° Southwest 410 472 38,000  Level FlightAware ADS-B
Mon 03:13:17 PM 34.6075 -77.7020 209° Southwest 411 473 38,000  Level FlightAware ADS-B
Mon 03:13:57 PM 34.5383 -77.7487 209° Southwest 412 474 38,000  Level FlightAware ADS-B
Mon 03:14:27 PM 34.4903 -77.7811 209° Southwest 412 474 38,000  Level FlightAware ADS-B
Mon 03:15:27 PM 34.3878 -77.8491 209° Southwest 414 476 38,000  Level FlightAware ADS-B
Mon 03:15:57 PM 34.3351 -77.8746 202° Southwest 427 491 38,000  Level FlightAware ADS-B
Mon 03:16:38 PM 34.2850 -77.8930 197° South 436 502 38,000  Level FlightAware ADS-B
Mon 03:17:13 PM 34.2160 -77.9130 193° South 435 501 38,000  Level FlightAware ADS-B
Mon 03:17:42 PM 34.1600 -77.9300 194° South 435 501 38,000  Level FlightAware ADS-B
Mon 03:18:17 PM 34.0960 -77.9490 194° South 436 502 38,000  Level FlightAware ADS-B
Mon 03:18:47 PM 34.0370 -77.9660 193° South 436 502 38,000  Level FlightAware ADS-B
Mon 03:19:41 PM 33.9360 -77.9950 193° South 434 499 38,000  Level FlightAware ADS-B
Mon 03:20:21 PM 33.8530 -78.0190 194° South 430 495 38,000  Level FlightAware ADS-B
Mon 03:21:01 PM 33.7740 -78.0420 194° South 426 490 38,000  Level FlightAware ADS-B
Mon 03:21:40 PM 33.6970 -78.0640 193° South 424 488 38,000  Level FlightAware ADS-B
Mon 03:22:12 PM 33.6430 -78.0790 193° South 424 488 38,000  Level FlightAware ADS-B
Mon 03:22:45 PM 33.5730 -78.0990 193° South 425 489 38,000  Level FlightAware ADS-B
Mon 03:23:24 PM 33.5000 -78.1200 193° South 424 488 38,000  Level FlightAware ADS-B
Mon 03:23:49 PM 33.4500 -78.1340 193° South 424 488 38,000  Level FlightAware ADS-B
Mon 03:24:29 PM 33.3730 -78.1560 193° South 423 487 38,000  Level FlightAware ADS-B
Mon 03:25:14 PM 33.2920 -78.1790 193° South 424 488 38,000  Level FlightAware ADS-B
Mon 03:25:49 PM 33.2330 -78.1960 194° South 425 489 38,000  Level FlightAware ADS-B
Mon 03:26:28 PM 33.1530 -78.2190 194° South 427 491 38,000  Level FlightAware ADS-B
Mon 03:27:27 PM 33.0370 -78.2520 193° South 430 495 38,000  Level FlightAware ADS-B
Mon 03:28:02 PM 32.9760 -78.2690 193° South 432 497 38,000  Level FlightAware ADS-B
Mon 03:28:32 PM 32.9180 -78.2850 193° South 434 499 38,000  Level FlightAware ADS-B
Mon 03:29:12 PM 32.8380 -78.3080 194° South 435 501 38,000  Level FlightAware ADS-B
Mon 03:30:14 PM 32.6890 -78.3500 193° South 432 497 38,000  Level FlightAware ADS-B
Mon 03:30:49 PM 32.6210 -78.3690 193° South 431 496 38,000  Level FlightAware ADS-B
Mon 03:31:29 PM 32.5400 -78.3910 193° South 432 497 38,000  Level FlightAware ADS-B
Mon 03:31:59 PM 32.4800 -78.4080 193° South 431 496 38,000  Level FlightAware ADS-B
Mon 03:32:34 PM 32.4160 -78.4260 193° South 431 496 38,000  Level FlightAware ADS-B
Mon 03:33:04 PM 32.3620 -78.4420 194° South 430 495 38,000  Level FlightAware ADS-B
Mon 03:33:41 PM 32.3000 -78.4600 194° South 431 496 38,000  Level FlightAware ADS-B
Mon 03:34:12 PM 32.2300 -78.4810 194° South 431 496 38,000  Level FlightAware ADS-B
Mon 03:35:26 PM 32.1690 -78.4970 193° South 431 496 38,000  Level FlightAware ADS-B
Mon 03:36:15 PM 32.0880 -78.5190 193° South 431 496 38,000  Level FlightAware ADS-B
Mon 03:36:51 PM 32.0290 -78.5350 193° South 431 496 38,000  Level FlightAware ADS-B
Mon 03:37:27 PM 31.9700 -78.5520 194° South 431 496 38,000  Level FlightAware ADS-B
Mon 03:38:29 PM 31.7270 -78.6260 195° South 426 490 38,000  Level FlightAware ADS-B
Mon 03:39:06 PM 31.6660 -78.6420 193° South 426 490 38,000  Level FlightAware ADS-B
Mon 03:39:30 PM 31.6270 -78.6530 194° South 426 490 38,000  Level FlightAware ADS-B
Mon 03:40:18 PM 31.5490 -78.6740 193° South 426 490 38,000  Level FlightAware ADS-B
Mon 03:41:28 PM 31.4350 -78.7050 193° South 426 490 38,000  Level FlightAware ADS-B
Mon 03:41:53 PM 31.3940 -78.7160 193° South 426 490 38,000  Level FlightAware ADS-B
Mon 03:42:53 PM 31.2960 -78.7420 193° South 426 490 38,000  Level FlightAware ADS-B
Mon 03:43:17 PM 31.2570 -78.7530 194° South 426 490 38,000  Level FlightAware ADS-B
Mon 03:43:53 PM 31.1980 -78.7690 193° South 426 490 38,000  Level FlightAware ADS-B
Mon 03:44:53 PM 31.1000 -78.7950 193° South 426 490 38,000  Level FlightAware ADS-B
Mon 03:45:29 PM 31.0410 -78.8110 193° South 426 490 38,000  Level FlightAware ADS-B
Mon 03:45:53 PM 31.0020 -78.8220 194° South 426 490 38,000  Level FlightAware ADS-B
Mon 03:46:54 PM 30.7680 -78.8970 195° South 426 490 38,000  Level FlightAware ADS-B
Mon 03:47:30 PM 30.7090 -78.9130 193° South 426 490 38,000  Level FlightAware ADS-B
Mon 03:48:06 PM 30.6500 -78.9290 193° South 426 490 38,000  Level FlightAware ADS-B
Mon 03:48:43 PM 30.5900 -78.9450 193° South 426 490 38,000  Level FlightAware ADS-B
Mon 03:49:20 PM 30.5290 -78.9610 193° South 426 490 38,000  Level FlightAware ADS-B
Mon 03:49:56 PM 30.4700 -78.9770 193° South 426 490 38,000  Level FlightAware ADS-B
Mon 03:50:56 PM 30.3730 -79.0030 193° South 426 490 38,000  Level FlightAware ADS-B
Mon 03:51:20 PM 30.3330 -79.0140 193° South 426 490 38,000  Level FlightAware ADS-B
Mon 03:51:56 PM 30.2750 -79.0290 193° South 426 490 38,000  Level FlightAware ADS-B
Mon 03:52:58 PM 30.1730 -79.0560 193° South 426 490 38,000  Level FlightAware ADS-B
Mon 03:53:34 PM 30.1150 -79.0720 193° South 426 490 38,000  Level FlightAware ADS-B
Mon 03:54:10 PM 30.0560 -79.0880 193° South 426 490 38,000  Level FlightAware ADS-B
Mon 03:54:47 PM 29.9950 -79.1040 193° South 426 490 38,000  Level FlightAware ADS-B
Mon 03:55:35 PM 29.9170 -79.1250 193° South 426 490 38,000  Level FlightAware ADS-B
Mon 03:55:59 PM 29.8780 -79.1350 193° South 426 490 38,000  Level FlightAware ADS-B
Mon 03:57:03 PM 29.6169 -79.3119 193° South 425 489 38,000  Level Miami Center
Mon 04:02:45 PM 28.9760 -79.5540 193° South 427 491 38,000  Level FlightAware ADS-B
Mon 04:03:11 PM 28.9230 -79.5730 197° South 425 489 38,000  Level FlightAware ADS-B
Mon 04:03:50 PM 28.8510 -79.6010 199° South 425 489 38,000  Level FlightAware ADS-B
Mon 04:04:20 PM 28.7950 -79.6220 198° South 426 490 38,000  Level FlightAware ADS-B
Mon 04:04:55 PM 28.7280 -79.6470 198° South 427 491 38,000  Level FlightAware ADS-B
Mon 04:05:39 PM 28.6470 -79.6770 198° South 428 493 38,000  Level FlightAware ADS-B
Mon 04:05:53 PM 28.6210 -79.6870 199° South 428 493 38,000  Level FlightAware ADS-B
Mon 04:06:39 PM 28.5360 -79.7190 198° South 427 491 38,000  Level FlightAware ADS-B
Mon 04:07:09 PM 28.4820 -79.7390 198° South 427 491 38,000  Level FlightAware ADS-B
Mon 04:07:49 PM 28.4020 -79.7690 198° South 427 491 38,000  Level FlightAware ADS-B
Mon 04:08:47 PM 28.2970 -79.8070 198° South 427 491 38,000  Level FlightAware ADS-B
Mon 04:09:43 PM 28.1870 -79.8480 198° South 427 491 38,000  Level FlightAware ADS-B
Mon 04:10:48 PM 28.0640 -79.8940 198° South 427 491 38,000  Level FlightAware ADS-B
Mon 04:11:01 PM 28.0400 -79.9030 198° South 427 491 38,000  Level FlightAware ADS-B
Mon 04:11:56 PM 27.9380 -79.9410 198° South 427 491 38,000  Level FlightAware ADS-B
Mon 04:12:58 PM 27.8210 -79.9840 198° South 430 495 38,000  Level FlightAware ADS-B
Mon 04:13:22 PM 27.7760 -80.0000 197° South 431 496 38,000  Level FlightAware ADS-B
Mon 04:14:01 PM 27.7000 -80.0280 198° South 432 497 38,000  Level FlightAware ADS-B
Mon 04:14:34 PM 27.6370 -80.0510 198° South 433 498 38,000  Level FlightAware ADS-B
Mon 04:15:07 PM 27.5750 -80.0740 198° South 434 499 38,000  Level FlightAware ADS-B
Mon 04:15:38 PM 27.5140 -80.0960 198° South 433 498 38,000  Level FlightAware ADS-B
Mon 04:16:09 PM 27.4560 -80.1180 199° South 432 497 38,000  Level FlightAware ADS-B
Mon 04:17:16 PM 27.3290 -80.1640 198° South 431 496 38,000  Level FlightAware ADS-B
Mon 04:17:36 PM 27.2900 -80.1780 198° South 431 496 38,000  Level FlightAware ADS-B
Mon 04:18:14 PM 27.2200 -80.2030 198° South 426 490 38,000  Level FlightAware ADS-B
Mon 04:19:25 PM 27.0860 -80.2520 198° South 437 503 38,000  Level FlightAware ADS-B
Mon 04:19:54 PM 27.0290 -80.2730 198° South 437 503 38,000  Level FlightAware ADS-B
Mon 04:20:49 PM 26.9240 -80.3110 198° South 436 502 38,000  Level FlightAware ADS-B
Mon 04:21:40 PM 26.8240 -80.3470 198° South 435 501 38,000  Level FlightAware ADS-B
Mon 04:22:26 PM 26.7340 -80.3790 198° South 434 499 38,000  Level FlightAware ADS-B
Mon 04:23:15 PM 26.6390 -80.4140 198° South 434 499 38,000  Level FlightAware ADS-B
Mon 04:23:55 PM 26.5630 -80.4410 198° South 435 501 38,000  Level FlightAware ADS-B
Mon 04:24:19 PM 26.5220 -80.4560 198° South 436 502 38,000  Level FlightAware ADS-B
Mon 04:25:17 PM 26.4090 -80.4970 198° South 438 504 38,000  Level FlightAware ADS-B
Mon 04:25:47 PM 26.3520 -80.5170 197° South 439 505 38,000  Level FlightAware ADS-B
Mon 04:26:37 PM 26.2540 -80.5520 198° South 439 505 38,000  Level FlightAware ADS-B
Mon 04:27:32 PM 26.1450 -80.5910 198° South 439 505 38,000  Level FlightAware ADS-B
Mon 04:28:21 PM 26.0580 -80.6400 207° Southwest 420 483 38,000  Level FlightAware ADS-B
Mon 04:29:18 PM 25.9770 -80.7160 220° Southwest 423 487 38,000  Level FlightAware ADS-B
Mon 04:30:11 PM 25.8950 -80.7930 220° Southwest 423 487 38,000  Level FlightAware ADS-B
Mon 04:31:10 PM 25.8050 -80.8770 220° Southwest 423 487 38,000  Level FlightAware ADS-B
Mon 04:31:58 PM 25.7330 -80.9430 220° Southwest 424 488 38,000  Level FlightAware ADS-B
Mon 04:32:21 PM 25.7010 -80.9720 219° Southwest 425 489 38,000  Level FlightAware ADS-B
Mon 04:33:26 PM 25.6000 -81.0660 220° Southwest 430 495 38,000  Level FlightAware ADS-B
Mon 04:34:19 PM 25.5190 -81.1410 220° Southwest 428 493 38,000  Level FlightAware ADS-B
Mon 04:34:48 PM 25.4770 -81.1800 220° Southwest 428 493 38,000  Level FlightAware ADS-B
Mon 04:35:51 PM 25.3790 -81.2700 220° Southwest 428 493 38,000  Level FlightAware ADS-B
Mon 04:36:56 PM 25.2800 -81.3610 220° Southwest 430 495 38,000  Level FlightAware ADS-B
Mon 04:37:48 PM 25.1990 -81.4350 220° Southwest 432 497 38,000  Level FlightAware ADS-B
Mon 04:38:46 PM 25.1100 -81.5160 219° Southwest 432 497 38,000 -350 Level FlightAware ADS-B
Mon 04:39:48 PM 25.0140 -81.6040 220° Southwest 430 495 37,300 -800 Descending FlightAware ADS-B
Mon 04:40:31 PM 24.9480 -81.6640 220° Southwest 430 495 36,600 -985 Descending FlightAware ADS-B
Mon 04:40:55 PM 24.9110 -81.6980 220° Southwest 434 499 36,200 -1,158 Descending FlightAware ADS-B
Mon 04:41:28 PM 24.8600 -81.7450 220° Southwest 440 506 35,500 -1,281 Descending FlightAware ADS-B
Mon 04:42:24 PM 24.7720 -81.8240 219° Southwest 433 498 34,300 -2,056 Descending FlightAware ADS-B
Mon 04:43:16 PM 24.6900 -81.8990 220° Southwest 443 510 31,800 -2,365 Descending FlightAware ADS-B
Mon 04:44:08 PM 24.6090 -81.9720 219° Southwest 429 494 30,200 -1,832 Descending FlightAware ADS-B
Mon 04:44:51 PM 24.5450 -82.0290 219° Southwest 420 483 28,900 -1,856 Descending FlightAware ADS-B
Mon 04:45:45 PM 24.4630 -82.1030 219° Southwest 410 472 27,200 -1,898 Descending FlightAware ADS-B
Mon 04:46:29 PM 24.4010 -82.1600 220° Southwest 409 471 25,800 -1,871 Descending FlightAware ADS-B
Mon 04:47:18 PM 24.3260 -82.2270 219° Southwest 403 464 24,300 -1,811 Descending FlightAware ADS-B
Mon 04:48:15 PM 24.2460 -82.2990 219° Southwest 397 457 22,600 -1,680 Descending FlightAware ADS-B
Mon 04:48:33 PM 24.2210 -82.3210 219° Southwest 391 450 22,200 -486 Descending FlightAware ADS-B
Mon 04:49:29 PM 24.1500 -82.3840 219° Southwest 370 426 22,000 -114 Descending FlightAware ADS-B
Mon 04:50:18 PM 24.0950 -82.4340 220° Southwest 370 426 22,000  Level FlightAware ADS-B
Mon 04:50:54 PM 24.0540 -82.4700 219° Southwest 370 426 22,000  Level FlightAware ADS-B
Mon 04:51:30 PM 24.0160 -82.5040 219° Southwest 278 320 22,000  Level FlightAware ADS-B
Mon 04:52:19 PM 23.9750 -82.5410 220° Southwest 278 320 22,000  Level FlightAware ADS-B
Mon 04:52:55 PM 23.9440 -82.5680 219° Southwest 278 320 22,000  Level FlightAware ADS-B
Mon 04:53:19 PM 23.9240 -82.5860 219° Southwest 278 320 22,000  Level FlightAware ADS-B
Mon 04:54:21 PM 23.8710 -82.6330 219° Southwest 278 320 22,000  Level FlightAware ADS-B
Mon 04:55:09 PM 23.8300 -82.6690 219° Southwest 278 320 22,000  Level FlightAware ADS-B
Mon 05:00:00 PM 23.2799 -82.4986 164° South  Level Estimated
Mon 05:01:00 PM 23.1665 -82.4636 164° South  Level Estimated
Mon 05:02:00 PM 23.0531 -82.4287 164° South  Level Estimated
Mon 05:03:00 PM 22.9891 -82.4091 164° South  Level Estimated
Mon 05:04:00 PM 22.9891 -82.4091 51° Northeast  Level Estimated
Mon 05:05:00 PM 22.9891 -82.4091 51° Northeast  Level Estimated
Mon 05:06:00 PM 22.9891 -82.4091 51° Northeast  Level Estimated
Mon 05:07:00 PM 22.9891 -82.4091 51° Northeast  Level Estimated
Mon 05:08:00 PM 22.9891 -82.4091 51° Northeast  Level Estimated
Mon 05:09:00 PM 22.9891 -82.4091 51° Northeast  Level Estimated
Mon 05:10:00 PM 22.9891 -82.4091 51° Northeast  Level Estimated
Mon 05:11:00 PM 22.9891 -82.4091 51° Northeast  Level Estimated
Mon 05:12:00 PM 22.9891 -82.4091 51° Northeast  Level Estimated
Mon 05:13:00 PM 22.9891 -82.4091 51° Northeast  Level Estimated
Mon 05:14:00 PM 22.9891 -82.4091 51° Northeast  Level Estimated
Mon 05:15:00 PM 22.9891 -82.4091 51° Northeast  Level Estimated
Mon 05:16:00 PM 22.9891 -82.4091 51° Northeast  Level Estimated
Mon 05:17:00 PM 22.9891 -82.4091 51° Northeast  Level Estimated
Mon 05:18:00 PM 22.9891 -82.4091 51° Northeast  Level Estimated
Mon 05:19:00 PM 22.9891 -82.4091 51° Northeast  Level Estimated
Mon 05:20:00 PM 22.9891 -82.4091 51° Northeast  Level Estimated
Mon 05:21:00 PM 22.9891 -82.4091 51° Northeast  Level Estimated

Login

Don't have an account? Register now (free) for customized features, flight alerts, and more!